<?xml version='1.0' encoding='UTF-8'?><gpx version="1.1" creator="JPX - https://github.com/jenetics/jpx" xmlns="http://www.topografix.com/GPX/1/1"><trk><trkseg><trkpt lat="47.64450807676302" lon="0.8972271792046823"><ele>124.99999999999999</ele><time>2026-04-13T15:58:28.25Z</time></trkpt><trkpt lat="47.64445059689253" lon="0.8972847946544231"><ele>125.0</ele><time>2026-04-13T15:58:43Z</time></trkpt><trkpt lat="47.64450985902374" lon="0.8972274040001312"><ele>125.0</ele><time>2026-04-13T15:58:49Z</time></trkpt><trkpt lat="47.64445464875495" lon="0.8972858182856484"><ele>125.0</ele><time>2026-04-13T16:01:14Z</time></trkpt><trkpt lat="47.64441160771656" lon="0.8974048796701536"><ele>124.99999999999999</ele><time>2026-04-13T16:01:22Z</time></trkpt><trkpt lat="47.6444413342673" lon="0.8975905052614412"><ele>125.0</ele><time>2026-04-13T16:01:24Z</time></trkpt><trkpt lat="47.644471074618004" lon="0.8976909075395689"><ele>124.99999999999999</ele><time>2026-04-13T16:01:25Z</time></trkpt><trkpt lat="47.64449827740612" lon="0.8977971178590968"><ele>125.0</ele><time>2026-04-13T16:01:26Z</time></trkpt><trkpt lat="47.64450976669896" lon="0.8978893210828092"><ele>125.0</ele><time>2026-04-13T16:01:27Z</time></trkpt><trkpt lat="47.6445480327301" lon="0.8980167431688734"><ele>125.0</ele><time>2026-04-13T16:01:28Z</time></trkpt><trkpt lat="47.64457137205744" lon="0.8981289645044689"><ele>124.99999999999999</ele><time>2026-04-13T16:01:29Z</time></trkpt><trkpt lat="47.64461986707381" lon="0.898307875901183"><ele>125.0</ele><time>2026-04-13T16:01:31Z</time></trkpt><trkpt lat="47.644646418270035" lon="0.8984106766990012"><ele>125.2</ele><time>2026-04-13T16:01:32Z</time></trkpt><trkpt lat="47.644666091147535" lon="0.898520486332153"><ele>125.4</ele><time>2026-04-13T16:01:33Z</time></trkpt><trkpt lat="47.644708238568434" lon="0.8986575518906512"><ele>125.6</ele><time>2026-04-13T16:01:34Z</time></trkpt><trkpt lat="47.644747915037314" lon="0.8987941424216965"><ele>125.8</ele><time>2026-04-13T16:01:35Z</time></trkpt><trkpt lat="47.64478724754634" lon="0.8989364645176394"><ele>126.0</ele><time>2026-04-13T16:01:36Z</time></trkpt><trkpt lat="47.644823739560145" lon="0.8991103968280056"><ele>127.25</ele><time>2026-04-13T16:01:37Z</time></trkpt><trkpt lat="47.644869585099" lon="0.8992993174911846"><ele>128.5</ele><time>2026-04-13T16:01:38Z</time></trkpt><trkpt lat="47.644894488542484" lon="0.8994250665344218"><ele>129.75</ele><time>2026-04-13T16:01:39Z</time></trkpt><trkpt lat="47.64493385154652" lon="0.8995700981955144"><ele>131.0</ele><time>2026-04-13T16:01:40Z</time></trkpt><trkpt lat="47.64499378951096" lon="0.8998070049847332"><ele>131.0</ele><time>2026-04-13T16:01:41Z</time></trkpt><trkpt lat="47.645048746810374" lon="0.9000019357555024"><ele>131.0</ele><time>2026-04-13T16:01:42Z</time></trkpt><trkpt lat="47.64509886977981" lon="0.9001586419915686"><ele>131.0</ele><time>2026-04-13T16:01:43Z</time></trkpt><trkpt lat="47.645146796586666" lon="0.9003585851834074"><ele>131.0</ele><time>2026-04-13T16:01:44Z</time></trkpt><trkpt lat="47.64521309234986" lon="0.9005229175103889"><ele>130.66666666666666</ele><time>2026-04-13T16:01:45Z</time></trkpt><trkpt lat="47.6452811806252" lon="0.9007095089154087"><ele>130.33333333333334</ele><time>2026-04-13T16:01:46Z</time></trkpt><trkpt lat="47.64534729754211" lon="0.9009486578814776"><ele>130.0</ele><time>2026-04-13T16:01:47Z</time></trkpt><trkpt lat="47.64538732735797" lon="0.9011746216571587"><ele>129.0</ele><time>2026-04-13T16:01:48Z</time></trkpt><trkpt lat="47.64541032441576" lon="0.9013913376369835"><ele>128.0</ele><time>2026-04-13T16:01:49Z</time></trkpt><trkpt lat="47.64543142717912" lon="0.9016258830816282"><ele>127.0</ele><time>2026-04-13T16:01:50Z</time></trkpt><trkpt lat="47.64544183038845" lon="0.9018896845591337"><ele>127.0</ele><time>2026-04-13T16:01:51Z</time></trkpt><trkpt lat="47.645451429495346" lon="0.90215800019487"><ele>127.0</ele><time>2026-04-13T16:01:52Z</time></trkpt><trkpt lat="47.64544644336959" lon="0.902438720895617"><ele>127.0</ele><time>2026-04-13T16:01:53Z</time></trkpt><trkpt lat="47.645448327579444" lon="0.9026639191574057"><ele>127.25</ele><time>2026-04-13T16:01:54Z</time></trkpt><trkpt lat="47.64545040509398" lon="0.9028829291415909"><ele>127.5</ele><time>2026-04-13T16:01:55Z</time></trkpt><trkpt lat="47.64544898505202" lon="0.9030929149341184"><ele>127.75</ele><time>2026-04-13T16:01:56Z</time></trkpt><trkpt lat="47.645445908219266" lon="0.9033100111523491"><ele>128.0</ele><time>2026-04-13T16:01:57Z</time></trkpt><trkpt lat="47.645449233635034" lon="0.9035429424045276"><ele>128.66666666666666</ele><time>2026-04-13T16:01:58Z</time></trkpt><trkpt lat="47.64544675056107" lon="0.903794995244817"><ele>129.33333333333334</ele><time>2026-04-13T16:01:59Z</time></trkpt><trkpt lat="47.64545031043422" lon="0.904013903652684"><ele>130.0</ele><time>2026-04-13T16:02:00Z</time></trkpt><trkpt lat="47.645456215129855" lon="0.9042745328643429"><ele>130.75</ele><time>2026-04-13T16:02:01Z</time></trkpt><trkpt lat="47.645458079884165" lon="0.9044959709673189"><ele>131.5</ele><time>2026-04-13T16:02:02Z</time></trkpt><trkpt lat="47.64545793989737" lon="0.9046836585855305"><ele>132.25</ele><time>2026-04-13T16:02:03Z</time></trkpt><trkpt lat="47.64545728565613" lon="0.9048606917971673"><ele>133.0</ele><time>2026-04-13T16:02:04Z</time></trkpt><trkpt lat="47.64545769898685" lon="0.905011190155898"><ele>133.0</ele><time>2026-04-13T16:02:05Z</time></trkpt><trkpt lat="47.645458016837885" lon="0.9051478318171141"><ele>133.0</ele><time>2026-04-13T16:02:06Z</time></trkpt><trkpt lat="47.645458289593606" lon="0.9052915073417152"><ele>133.0</ele><time>2026-04-13T16:02:07Z</time></trkpt><trkpt lat="47.64546196517096" lon="0.9054493279236925"><ele>133.0</ele><time>2026-04-13T16:02:08Z</time></trkpt><trkpt lat="47.645463263946" lon="0.9056505171099883"><ele>133.0</ele><time>2026-04-13T16:02:09Z</time></trkpt><trkpt lat="47.64546153827465" lon="0.9059147906626038"><ele>132.5</ele><time>2026-04-13T16:02:10Z</time></trkpt><trkpt lat="47.64546121028424" lon="0.9061627822570861"><ele>132.0</ele><time>2026-04-13T16:02:11Z</time></trkpt><trkpt lat="47.645463710029254" lon="0.9063705108977015"><ele>131.5</ele><time>2026-04-13T16:02:12Z</time></trkpt><trkpt lat="47.645466619786724" lon="0.906560118718803"><ele>131.0</ele><time>2026-04-13T16:02:13Z</time></trkpt><trkpt lat="47.645470349706464" lon="0.9067343809375762"><ele>130.0</ele><time>2026-04-13T16:02:14Z</time></trkpt><trkpt lat="47.6454704316601" lon="0.9069100651101856"><ele>129.0</ele><time>2026-04-13T16:02:15Z</time></trkpt><trkpt lat="47.64547213295073" lon="0.9070956866765421"><ele>128.0</ele><time>2026-04-13T16:02:16Z</time></trkpt><trkpt lat="47.64547522914664" lon="0.9073121386647985"><ele>127.0</ele><time>2026-04-13T16:02:17Z</time></trkpt><trkpt lat="47.645478737878705" lon="0.9075639975114151"><ele>127.33333333333334</ele><time>2026-04-13T16:02:18Z</time></trkpt><trkpt lat="47.645482532070744" lon="0.9078364930432917"><ele>127.66666666666666</ele><time>2026-04-13T16:02:19Z</time></trkpt><trkpt lat="47.64548004207378" lon="0.9081301109601798"><ele>128.0</ele><time>2026-04-13T16:02:20Z</time></trkpt><trkpt lat="47.64547897430288" lon="0.9084468950410121"><ele>128.0</ele><time>2026-04-13T16:02:21Z</time></trkpt><trkpt lat="47.6454797693834" lon="0.9087350732301182"><ele>128.0</ele><time>2026-04-13T16:02:22Z</time></trkpt><trkpt lat="47.64547567477955" lon="0.9089904695584441"><ele>128.0</ele><time>2026-04-13T16:02:23Z</time></trkpt><trkpt lat="47.64546544023511" lon="0.9092475493836534"><ele>128.66666666666666</ele><time>2026-04-13T16:02:24Z</time></trkpt><trkpt lat="47.6454460126094" lon="0.9095068227354767"><ele>129.33333333333334</ele><time>2026-04-13T16:02:25Z</time></trkpt><trkpt lat="47.64540892976079" lon="0.9097847159930229"><ele>130.0</ele><time>2026-04-13T16:02:26Z</time></trkpt><trkpt lat="47.64537498388463" lon="0.9100982980768878"><ele>130.0</ele><time>2026-04-13T16:02:27Z</time></trkpt><trkpt lat="47.645350651362975" lon="0.9104546517559722"><ele>130.0</ele><time>2026-04-13T16:02:28Z</time></trkpt><trkpt lat="47.645343504186805" lon="0.91085188578789"><ele>130.0</ele><time>2026-04-13T16:02:29Z</time></trkpt><trkpt lat="47.64535662569059" lon="0.9112648896219123"><ele>130.0</ele><time>2026-04-13T16:02:30Z</time></trkpt><trkpt lat="47.64539665301484" lon="0.9116876777492524"><ele>129.0</ele><time>2026-04-13T16:02:31Z</time></trkpt><trkpt lat="47.6454436627957" lon="0.9121095833653955"><ele>128.0</ele><time>2026-04-13T16:02:32Z</time></trkpt><trkpt lat="47.64548128665328" lon="0.9125201661336882"><ele>127.0</ele><time>2026-04-13T16:02:33Z</time></trkpt><trkpt lat="47.645509704292856" lon="0.9128862820642161"><ele>126.0</ele><time>2026-04-13T16:02:34Z</time></trkpt><trkpt lat="47.645538587818216" lon="0.9132236541139171"><ele>125.66666666666666</ele><time>2026-04-13T16:02:35Z</time></trkpt><trkpt lat="47.64556268428441" lon="0.9135493429254944"><ele>125.33333333333333</ele><time>2026-04-13T16:02:36Z</time></trkpt><trkpt lat="47.64558194658421" lon="0.9138496995039413"><ele>125.0</ele><time>2026-04-13T16:02:37Z</time></trkpt><trkpt lat="47.64559182078875" lon="0.914136166944785"><ele>125.0</ele><time>2026-04-13T16:02:38Z</time></trkpt><trkpt lat="47.64558538500696" lon="0.9144313201986676"><ele>125.0</ele><time>2026-04-13T16:02:39Z</time></trkpt><trkpt lat="47.645559439600206" lon="0.9147246533381512"><ele>125.0</ele><time>2026-04-13T16:02:40Z</time></trkpt><trkpt lat="47.64551825998608" lon="0.9150298922003938"><ele>124.5</ele><time>2026-04-13T16:02:41Z</time></trkpt><trkpt lat="47.64546380981293" lon="0.9153493548309604"><ele>124.0</ele><time>2026-04-13T16:02:42Z</time></trkpt><trkpt lat="47.64538802988694" lon="0.9156881170898015"><ele>124.0</ele><time>2026-04-13T16:02:43Z</time></trkpt><trkpt lat="47.64530103352563" lon="0.9160490078508909"><ele>124.0</ele><time>2026-04-13T16:02:44Z</time></trkpt><trkpt lat="47.64522605880922" lon="0.9163847284155159"><ele>124.0</ele><time>2026-04-13T16:02:45Z</time></trkpt><trkpt lat="47.64516956435844" lon="0.9166951340001931"><ele>124.0</ele><time>2026-04-13T16:02:46Z</time></trkpt><trkpt lat="47.64512161361822" lon="0.9169972846259596"><ele>124.0</ele><time>2026-04-13T16:02:47Z</time></trkpt><trkpt lat="47.645067080382645" lon="0.9172956914271064"><ele>122.66666666666667</ele><time>2026-04-13T16:02:48Z</time></trkpt><trkpt lat="47.645005988634786" lon="0.9175762017773895"><ele>121.33333333333334</ele><time>2026-04-13T16:02:49Z</time></trkpt><trkpt lat="47.6449403715449" lon="0.9178335650545493"><ele>120.0</ele><time>2026-04-13T16:02:50Z</time></trkpt><trkpt lat="47.644875825346965" lon="0.9180941027058152"><ele>120.0</ele><time>2026-04-13T16:02:51Z</time></trkpt><trkpt lat="47.64481499791481" lon="0.9183577805784386"><ele>120.0</ele><time>2026-04-13T16:02:52Z</time></trkpt><trkpt lat="47.64475254350083" lon="0.9186259549741954"><ele>120.0</ele><time>2026-04-13T16:02:53Z</time></trkpt><trkpt lat="47.64468009706596" lon="0.9188952661781871"><ele>119.66666666666666</ele><time>2026-04-13T16:02:54Z</time></trkpt><trkpt lat="47.64458790910623" lon="0.919161928962298"><ele>119.33333333333333</ele><time>2026-04-13T16:02:55Z</time></trkpt><trkpt lat="47.64448660953089" lon="0.9194054217016018"><ele>119.0</ele><time>2026-04-13T16:02:56Z</time></trkpt><trkpt lat="47.644397513296475" lon="0.9196319928372826"><ele>119.0</ele><time>2026-04-13T16:02:57Z</time></trkpt><trkpt lat="47.64431567795688" lon="0.9198413407015026"><ele>119.0</ele><time>2026-04-13T16:02:58Z</time></trkpt><trkpt lat="47.64424839992043" lon="0.920075765840993"><ele>119.0</ele><time>2026-04-13T16:02:59Z</time></trkpt><trkpt lat="47.644206111673164" lon="0.9203332143372174"><ele>118.66666666666666</ele><time>2026-04-13T16:03:00Z</time></trkpt><trkpt lat="47.64419997369269" lon="0.9206168478671013"><ele>118.33333333333334</ele><time>2026-04-13T16:03:01Z</time></trkpt><trkpt lat="47.644221821217975" lon="0.9209118205651872"><ele>118.0</ele><time>2026-04-13T16:03:02Z</time></trkpt><trkpt lat="47.64427190115064" lon="0.9212195041491793"><ele>118.0</ele><time>2026-04-13T16:03:03Z</time></trkpt><trkpt lat="47.64433015279038" lon="0.9215484090114964"><ele>118.0</ele><time>2026-04-13T16:03:04Z</time></trkpt><trkpt lat="47.644386931221035" lon="0.9218411462648246"><ele>118.0</ele><time>2026-04-13T16:03:05Z</time></trkpt><trkpt lat="47.64443861379734" lon="0.9221087996853697"><ele>118.0</ele><time>2026-04-13T16:03:06Z</time></trkpt><trkpt lat="47.64448981019104" lon="0.9223494171385963"><ele>118.0</ele><time>2026-04-13T16:03:07Z</time></trkpt><trkpt lat="47.64453165133418" lon="0.9225865271123169"><ele>118.0</ele><time>2026-04-13T16:03:08Z</time></trkpt><trkpt lat="47.644565738564175" lon="0.9228251365776081"><ele>117.66666666666667</ele><time>2026-04-13T16:03:09Z</time></trkpt><trkpt lat="47.64458884992882" lon="0.9230765613522477"><ele>117.33333333333334</ele><time>2026-04-13T16:03:10Z</time></trkpt><trkpt lat="47.64459795161858" lon="0.9233492283651377"><ele>117.0</ele><time>2026-04-13T16:03:11Z</time></trkpt><trkpt lat="47.64460320495448" lon="0.923652735679075"><ele>116.66666666666666</ele><time>2026-04-13T16:03:12Z</time></trkpt><trkpt lat="47.64461815844239" lon="0.9239904880169467"><ele>116.33333333333333</ele><time>2026-04-13T16:03:13Z</time></trkpt><trkpt lat="47.644633367062376" lon="0.9243118779482447"><ele>116.0</ele><time>2026-04-13T16:03:14Z</time></trkpt><trkpt lat="47.644649980161255" lon="0.9246057347119379"><ele>116.0</ele><time>2026-04-13T16:03:15Z</time></trkpt><trkpt lat="47.64467247354395" lon="0.9248801205750017"><ele>116.0</ele><time>2026-04-13T16:03:16Z</time></trkpt><trkpt lat="47.64470909143882" lon="0.9251438760824192"><ele>116.0</ele><time>2026-04-13T16:03:17Z</time></trkpt><trkpt lat="47.64475370619275" lon="0.9254001634528954"><ele>116.0</ele><time>2026-04-13T16:03:18Z</time></trkpt><trkpt lat="47.64478957205465" lon="0.9256474066290983"><ele>116.0</ele><time>2026-04-13T16:03:19Z</time></trkpt><trkpt lat="47.644832508602946" lon="0.9258759102973397"><ele>116.0</ele><time>2026-04-13T16:03:20Z</time></trkpt><trkpt lat="47.644873437081635" lon="0.9260925671553204"><ele>116.0</ele><time>2026-04-13T16:03:21Z</time></trkpt><trkpt lat="47.644923454472256" lon="0.9263019573911417"><ele>116.0</ele><time>2026-04-13T16:03:22Z</time></trkpt><trkpt lat="47.64497201152139" lon="0.9265164241113945"><ele>116.0</ele><time>2026-04-13T16:03:23Z</time></trkpt><trkpt lat="47.645033114282995" lon="0.9267378007798497"><ele>115.66666666666666</ele><time>2026-04-13T16:03:24Z</time></trkpt><trkpt lat="47.645109766572254" lon="0.9269556845897978"><ele>115.33333333333334</ele><time>2026-04-13T16:03:25Z</time></trkpt><trkpt lat="47.64520591569548" lon="0.9271668935966073"><ele>115.0</ele><time>2026-04-13T16:03:26Z</time></trkpt><trkpt lat="47.645307978015296" lon="0.9273682616053208"><ele>114.0</ele><time>2026-04-13T16:03:27Z</time></trkpt><trkpt lat="47.64541179668075" lon="0.9275855520015514"><ele>113.0</ele><time>2026-04-13T16:03:28Z</time></trkpt><trkpt lat="47.64551899071947" lon="0.9278213086670042"><ele>112.0</ele><time>2026-04-13T16:03:29Z</time></trkpt><trkpt lat="47.64563968575038" lon="0.9280950404258019"><ele>111.5</ele><time>2026-04-13T16:03:30Z</time></trkpt><trkpt lat="47.64576460368784" lon="0.928416877996551"><ele>111.0</ele><time>2026-04-13T16:03:31Z</time></trkpt><trkpt lat="47.6458826274428" lon="0.9287586315299654"><ele>111.0</ele><time>2026-04-13T16:03:32Z</time></trkpt><trkpt lat="47.64597813584589" lon="0.9290754916460227"><ele>111.0</ele><time>2026-04-13T16:03:33Z</time></trkpt><trkpt lat="47.64606247057446" lon="0.929357859249408"><ele>111.0</ele><time>2026-04-13T16:03:34Z</time></trkpt><trkpt lat="47.64611890006703" lon="0.9296314345439173"><ele>111.0</ele><time>2026-04-13T16:03:35Z</time></trkpt><trkpt lat="47.64614775069283" lon="0.9298958381654933"><ele>111.0</ele><time>2026-04-13T16:03:36Z</time></trkpt><trkpt lat="47.64614796473378" lon="0.9301760041537374"><ele>111.0</ele><time>2026-04-13T16:03:37Z</time></trkpt><trkpt lat="47.64612154199537" lon="0.9304610928583785"><ele>111.0</ele><time>2026-04-13T16:03:38Z</time></trkpt><trkpt lat="47.64607037403412" lon="0.9307599248263756"><ele>111.0</ele><time>2026-04-13T16:03:39Z</time></trkpt><trkpt lat="47.645997310359604" lon="0.9310825935400749"><ele>111.0</ele><time>2026-04-13T16:03:40Z</time></trkpt><trkpt lat="47.64591199406747" lon="0.9314123426009083"><ele>108.5</ele><time>2026-04-13T16:03:41Z</time></trkpt><trkpt lat="47.645826019702255" lon="0.9317666726967224"><ele>106.0</ele><time>2026-04-13T16:03:42Z</time></trkpt><trkpt lat="47.64573395312465" lon="0.9321413809487764"><ele>106.0</ele><time>2026-04-13T16:03:43Z</time></trkpt><trkpt lat="47.645653276383094" lon="0.9324748063504824"><ele>106.0</ele><time>2026-04-13T16:03:44Z</time></trkpt><trkpt lat="47.645576325907484" lon="0.9328118512789617"><ele>106.0</ele><time>2026-04-13T16:03:45Z</time></trkpt><trkpt lat="47.64549629102542" lon="0.9331465149112189"><ele>106.0</ele><time>2026-04-13T16:03:46Z</time></trkpt><trkpt lat="47.64542515546855" lon="0.933452325254549"><ele>106.0</ele><time>2026-04-13T16:03:47Z</time></trkpt><trkpt lat="47.64536143562905" lon="0.9337187240175322"><ele>106.0</ele><time>2026-04-13T16:03:48Z</time></trkpt><trkpt lat="47.64530012779321" lon="0.9339735036974317"><ele>106.0</ele><time>2026-04-13T16:03:49Z</time></trkpt><trkpt lat="47.64524284321291" lon="0.9342061222235645"><ele>107.75</ele><time>2026-04-13T16:03:50Z</time></trkpt><trkpt lat="47.645192208336276" lon="0.9344130465979702"><ele>109.5</ele><time>2026-04-13T16:03:51Z</time></trkpt><trkpt lat="47.645153790483825" lon="0.9345937994142505"><ele>111.25</ele><time>2026-04-13T16:03:52Z</time></trkpt><trkpt lat="47.64513221507696" lon="0.9347701788914088"><ele>113.0</ele><time>2026-04-13T16:03:53Z</time></trkpt><trkpt lat="47.64515578867011" lon="0.9349659853244484"><ele>112.66666666666666</ele><time>2026-04-13T16:03:54Z</time></trkpt><trkpt lat="47.64520565931495" lon="0.935163212784843"><ele>112.33333333333334</ele><time>2026-04-13T16:03:55Z</time></trkpt><trkpt lat="47.645303963208136" lon="0.9353582315494137"><ele>112.0</ele><time>2026-04-13T16:03:56Z</time></trkpt><trkpt lat="47.64541495981601" lon="0.9355712031067359"><ele>112.0</ele><time>2026-04-13T16:03:57Z</time></trkpt><trkpt lat="47.64554376256575" lon="0.9358303069076892"><ele>112.0</ele><time>2026-04-13T16:03:58Z</time></trkpt><trkpt lat="47.645680915214015" lon="0.9360810003667246"><ele>112.0</ele><time>2026-04-13T16:03:59Z</time></trkpt><trkpt lat="47.64583690295913" lon="0.9363363885155387"><ele>114.5</ele><time>2026-04-13T16:04:00Z</time></trkpt><trkpt lat="47.646006296599765" lon="0.9365873153463222"><ele>117.0</ele><time>2026-04-13T16:04:01Z</time></trkpt><trkpt lat="47.64617471184279" lon="0.9368061894638973"><ele>117.66666666666666</ele><time>2026-04-13T16:04:02Z</time></trkpt><trkpt lat="47.64632531046954" lon="0.9369898036487544"><ele>118.33333333333333</ele><time>2026-04-13T16:04:03Z</time></trkpt><trkpt lat="47.646474463290446" lon="0.9371592812521704"><ele>119.0</ele><time>2026-04-13T16:04:04Z</time></trkpt><trkpt lat="47.64663920218477" lon="0.937342431667168"><ele>119.0</ele><time>2026-04-13T16:04:05Z</time></trkpt><trkpt lat="47.64682673505409" lon="0.937529955406111"><ele>119.0</ele><time>2026-04-13T16:04:06Z</time></trkpt><trkpt lat="47.64703344612836" lon="0.9377232909039896"><ele>119.33333333333333</ele><time>2026-04-13T16:04:07Z</time></trkpt><trkpt lat="47.64722205328697" lon="0.9379211090875865"><ele>119.66666666666666</ele><time>2026-04-13T16:04:08Z</time></trkpt><trkpt lat="47.647389112936494" lon="0.9381011832597447"><ele>120.0</ele><time>2026-04-13T16:04:09Z</time></trkpt><trkpt lat="47.64753754318864" lon="0.93826573399362"><ele>119.66666666666666</ele><time>2026-04-13T16:04:10Z</time></trkpt><trkpt lat="47.647673889594536" lon="0.938415500566332"><ele>119.33333333333333</ele><time>2026-04-13T16:04:11Z</time></trkpt><trkpt lat="47.647800025977986" lon="0.9385532710369434"><ele>119.0</ele><time>2026-04-13T16:04:12Z</time></trkpt><trkpt lat="47.64791497017655" lon="0.9386805273684673"><ele>118.75</ele><time>2026-04-13T16:04:13Z</time></trkpt><trkpt lat="47.64802334465434" lon="0.9387972672616721"><ele>118.5</ele><time>2026-04-13T16:04:14Z</time></trkpt><trkpt lat="47.64812433113385" lon="0.9389071112993335"><ele>118.25</ele><time>2026-04-13T16:04:15Z</time></trkpt><trkpt lat="47.64821299622511" lon="0.9390024927978015"><ele>118.0</ele><time>2026-04-13T16:04:16Z</time></trkpt><trkpt lat="47.648300359623825" lon="0.9390867087475511"><ele>118.0</ele><time>2026-04-13T16:04:17Z</time></trkpt><trkpt lat="47.648390095105924" lon="0.9391639392139249"><ele>118.00000000000001</ele><time>2026-04-13T16:04:18Z</time></trkpt><trkpt lat="47.64848350791351" lon="0.9392393913965774"><ele>118.00000000000001</ele><time>2026-04-13T16:04:19Z</time></trkpt><trkpt lat="47.648572189354276" lon="0.9393091687089125"><ele>118.0</ele><time>2026-04-13T16:04:20Z</time></trkpt><trkpt lat="47.648656222996244" lon="0.9393745416678728"><ele>118.0</ele><time>2026-04-13T16:04:21Z</time></trkpt><trkpt lat="47.648744962858416" lon="0.9394530852349636"><ele>117.0</ele><time>2026-04-13T16:04:22Z</time></trkpt><trkpt lat="47.64884850897131" lon="0.9395576706594942"><ele>116.0</ele><time>2026-04-13T16:04:23Z</time></trkpt><trkpt lat="47.64896590559635" lon="0.9396871537091381"><ele>115.0</ele><time>2026-04-13T16:04:24Z</time></trkpt><trkpt lat="47.64909003083832" lon="0.9398517058895316"><ele>114.0</ele><time>2026-04-13T16:04:25Z</time></trkpt><trkpt lat="47.64918624100086" lon="0.940009117813105"><ele>114.5</ele><time>2026-04-13T16:04:26Z</time></trkpt><trkpt lat="47.64926153784209" lon="0.9401766318442796"><ele>115.0</ele><time>2026-04-13T16:04:27Z</time></trkpt><trkpt lat="47.64932470761195" lon="0.9403486608670512"><ele>115.5</ele><time>2026-04-13T16:04:28Z</time></trkpt><trkpt lat="47.649366661473124" lon="0.9405009478200338"><ele>116.0</ele><time>2026-04-13T16:04:29Z</time></trkpt><trkpt lat="47.64938045930441" lon="0.9406438921652274"><ele>115.99999999999999</ele><time>2026-04-13T16:04:30Z</time></trkpt><trkpt lat="47.64937762646864" lon="0.9407631974762705"><ele>116.0</ele><time>2026-04-13T16:04:31Z</time></trkpt><trkpt lat="47.6493597129775" lon="0.9408693837322388"><ele>116.0</ele><time>2026-04-13T16:04:32Z</time></trkpt><trkpt lat="47.64930946221179" lon="0.9409813223416409"><ele>116.0</ele><time>2026-04-13T16:04:33Z</time></trkpt><trkpt lat="47.649225930089244" lon="0.9410928486466363"><ele>115.99999999999999</ele><time>2026-04-13T16:04:34Z</time></trkpt><trkpt lat="47.64916808377863" lon="0.9411821085454444"><ele>116.0</ele><time>2026-04-13T16:04:35Z</time></trkpt><trkpt lat="47.64913653700028" lon="0.9412658849597489"><ele>116.25</ele><time>2026-04-13T16:04:36Z</time></trkpt><trkpt lat="47.64909569765573" lon="0.9413909081366056"><ele>116.5</ele><time>2026-04-13T16:04:38Z</time></trkpt><trkpt lat="47.64925731012936" lon="0.9415219134952678"><ele>116.75</ele><time>2026-04-13T16:04:39Z</time></trkpt><trkpt lat="47.64938152387266" lon="0.9416464633527312"><ele>117.0</ele><time>2026-04-13T16:04:40Z</time></trkpt><trkpt lat="47.64950270459652" lon="0.9417797093750501"><ele>116.0</ele><time>2026-04-13T16:04:41Z</time></trkpt><trkpt lat="47.649632456271604" lon="0.9419017723360248"><ele>115.0</ele><time>2026-04-13T16:04:42Z</time></trkpt><trkpt lat="47.64975094333231" lon="0.9419880723301446"><ele>114.0</ele><time>2026-04-13T16:04:43Z</time></trkpt><trkpt lat="47.64985805127645" lon="0.9420572592784211"><ele>113.0</ele><time>2026-04-13T16:04:44Z</time></trkpt><trkpt lat="47.64995075680301" lon="0.9421044198901686"><ele>113.0</ele><time>2026-04-13T16:04:45Z</time></trkpt><trkpt lat="47.65002552005987" lon="0.9421446137487907"><ele>113.00000000000001</ele><time>2026-04-13T16:04:46Z</time></trkpt><trkpt lat="47.650114169822885" lon="0.9421640136936054"><ele>113.00000000000001</ele><time>2026-04-13T16:04:47Z</time></trkpt><trkpt lat="47.650218312614264" lon="0.9421428821064242"><ele>113.0</ele><time>2026-04-13T16:04:48Z</time></trkpt><trkpt lat="47.65033899991501" lon="0.9421141371067772"><ele>113.0</ele><time>2026-04-13T16:04:49Z</time></trkpt><trkpt lat="47.65043500411193" lon="0.9421627778726508"><ele>112.4</ele><time>2026-04-13T16:04:50Z</time></trkpt><trkpt lat="47.65053512022462" lon="0.9421798127705714"><ele>111.80000000000001</ele><time>2026-04-13T16:04:51Z</time></trkpt><trkpt lat="47.65062396435112" lon="0.942246377500207"><ele>111.2</ele><time>2026-04-13T16:04:52Z</time></trkpt><trkpt lat="47.65070821640923" lon="0.9422901634223256"><ele>110.6</ele><time>2026-04-13T16:04:53Z</time></trkpt><trkpt lat="47.65081411096738" lon="0.9423558491950607"><ele>110.0</ele><time>2026-04-13T16:04:54Z</time></trkpt><trkpt lat="47.65080030272927" lon="0.9426806623602889"><ele>110.0</ele><time>2026-04-13T16:04:55Z</time></trkpt><trkpt lat="47.65085623774167" lon="0.9428789824937824"><ele>110.0</ele><time>2026-04-13T16:04:56Z</time></trkpt><trkpt lat="47.6508993380104" lon="0.9430296454779148"><ele>110.0</ele><time>2026-04-13T16:04:57Z</time></trkpt><trkpt lat="47.650894856446236" lon="0.9431917046699531"><ele>110.0</ele><time>2026-04-13T16:04:58Z</time></trkpt><trkpt lat="47.650903177549324" lon="0.9433837716342219"><ele>111.0</ele><time>2026-04-13T16:04:59Z</time></trkpt><trkpt lat="47.65084475721687" lon="0.9435768494492099"><ele>112.0</ele><time>2026-04-13T16:05:00Z</time></trkpt><trkpt lat="47.65081962340907" lon="0.9437689435773443"><ele>113.0</ele><time>2026-04-13T16:05:01Z</time></trkpt><trkpt lat="47.650798618124334" lon="0.943945749905606"><ele>114.0</ele><time>2026-04-13T16:05:02Z</time></trkpt><trkpt lat="47.65080040296253" lon="0.9441255511110116"><ele>115.0</ele><time>2026-04-13T16:05:03Z</time></trkpt><trkpt lat="47.65084938808513" lon="0.9443060605360281"><ele>116.0</ele><time>2026-04-13T16:05:04Z</time></trkpt><trkpt lat="47.650911083426" lon="0.9444746467474563"><ele>117.0</ele><time>2026-04-13T16:05:05Z</time></trkpt><trkpt lat="47.65100072914729" lon="0.9446574372359134"><ele>118.0</ele><time>2026-04-13T16:05:06Z</time></trkpt><trkpt lat="47.651100475181586" lon="0.9448578800626745"><ele>118.0</ele><time>2026-04-13T16:05:07Z</time></trkpt><trkpt lat="47.65118873456682" lon="0.9450278493262183"><ele>118.0</ele><time>2026-04-13T16:05:08Z</time></trkpt><trkpt lat="47.65126643798876" lon="0.9452260088063491"><ele>118.0</ele><time>2026-04-13T16:05:09Z</time></trkpt><trkpt lat="47.65133068784062" lon="0.9454441784785103"><ele>118.33333333333334</ele><time>2026-04-13T16:05:10Z</time></trkpt><trkpt lat="47.651359248196684" lon="0.9456959179144487"><ele>118.66666666666666</ele><time>2026-04-13T16:05:11Z</time></trkpt><trkpt lat="47.65138886137434" lon="0.9459601918899699"><ele>119.0</ele><time>2026-04-13T16:05:12Z</time></trkpt><trkpt lat="47.65142828583216" lon="0.9462603483239698"><ele>119.33333333333333</ele><time>2026-04-13T16:05:13Z</time></trkpt><trkpt lat="47.65144230033646" lon="0.9465713835827585"><ele>119.66666666666666</ele><time>2026-04-13T16:05:14Z</time></trkpt><trkpt lat="47.65148514400305" lon="0.9468459514940202"><ele>120.0</ele><time>2026-04-13T16:05:15Z</time></trkpt><trkpt lat="47.65157697722936" lon="0.9470960691780165"><ele>120.0</ele><time>2026-04-13T16:05:16Z</time></trkpt><trkpt lat="47.65168008033882" lon="0.9473481637409873"><ele>120.0</ele><time>2026-04-13T16:05:17Z</time></trkpt><trkpt lat="47.651803529967786" lon="0.9476115646028997"><ele>120.0</ele><time>2026-04-13T16:05:18Z</time></trkpt><trkpt lat="47.65191782378126" lon="0.9478590451833052"><ele>120.0</ele><time>2026-04-13T16:05:19Z</time></trkpt><trkpt lat="47.652020458452284" lon="0.9480844255317682"><ele>120.0</ele><time>2026-04-13T16:05:20Z</time></trkpt><trkpt lat="47.65212527388989" lon="0.9483078016078175"><ele>120.0</ele><time>2026-04-13T16:05:21Z</time></trkpt><trkpt lat="47.65222386511498" lon="0.9485314724407277"><ele>120.66666666666666</ele><time>2026-04-13T16:05:22Z</time></trkpt><trkpt lat="47.65231657720975" lon="0.9487438540174461"><ele>121.33333333333333</ele><time>2026-04-13T16:05:23Z</time></trkpt><trkpt lat="47.65241054044091" lon="0.9489518153444532"><ele>122.0</ele><time>2026-04-13T16:05:24Z</time></trkpt><trkpt lat="47.652503961126605" lon="0.9491345476551436"><ele>122.0</ele><time>2026-04-13T16:05:25Z</time></trkpt><trkpt lat="47.6525843942267" lon="0.9493149082812018"><ele>122.0</ele><time>2026-04-13T16:05:26Z</time></trkpt><trkpt lat="47.65267649621819" lon="0.9494585202266731"><ele>122.0</ele><time>2026-04-13T16:05:27Z</time></trkpt><trkpt lat="47.65276805149721" lon="0.9495634707491288"><ele>122.0</ele><time>2026-04-13T16:05:28Z</time></trkpt><trkpt lat="47.65283729532516" lon="0.949671261071281"><ele>121.99999999999999</ele><time>2026-04-13T16:05:29Z</time></trkpt><trkpt lat="47.65289229592838" lon="0.9497702794758771"><ele>122.0</ele><time>2026-04-13T16:05:30Z</time></trkpt><trkpt lat="47.65292479134818" lon="0.9498691428714128"><ele>122.0</ele><time>2026-04-13T16:05:31Z</time></trkpt><trkpt lat="47.65292665445709" lon="0.949973874545797"><ele>122.0</ele><time>2026-04-13T16:05:32Z</time></trkpt><trkpt lat="47.652889496988635" lon="0.9500855399578256"><ele>121.99999999999999</ele><time>2026-04-13T16:05:33Z</time></trkpt><trkpt lat="47.65281130047062" lon="0.9501872074715731"><ele>122.0</ele><time>2026-04-13T16:05:34Z</time></trkpt><trkpt lat="47.65271223487867" lon="0.9502691652321388"><ele>121.0</ele><time>2026-04-13T16:05:35Z</time></trkpt><trkpt lat="47.652592870630166" lon="0.9503792838714443"><ele>120.0</ele><time>2026-04-13T16:05:36Z</time></trkpt><trkpt lat="47.65246241309166" lon="0.9505019014616151"><ele>119.0</ele><time>2026-04-13T16:05:37Z</time></trkpt><trkpt lat="47.65233565674562" lon="0.9506336100102688"><ele>119.0</ele><time>2026-04-13T16:05:38Z</time></trkpt><trkpt lat="47.65221284220613" lon="0.950728588882267"><ele>119.0</ele><time>2026-04-13T16:05:39Z</time></trkpt><trkpt lat="47.652120471928285" lon="0.9508773525734862"><ele>119.0</ele><time>2026-04-13T16:05:40Z</time></trkpt><trkpt lat="47.65206018205343" lon="0.9510467028480581"><ele>119.0</ele><time>2026-04-13T16:05:41Z</time></trkpt><trkpt lat="47.65205620041831" lon="0.9512617099609366"><ele>118.66666666666666</ele><time>2026-04-13T16:05:42Z</time></trkpt><trkpt lat="47.65205514142541" lon="0.9515147956286285"><ele>118.33333333333334</ele><time>2026-04-13T16:05:43Z</time></trkpt><trkpt lat="47.6520518709116" lon="0.9517911483793361"><ele>118.0</ele><time>2026-04-13T16:05:44Z</time></trkpt><trkpt lat="47.652032857431244" lon="0.9520892391047954"><ele>117.66666666666667</ele><time>2026-04-13T16:05:45Z</time></trkpt><trkpt lat="47.651988654410964" lon="0.9524107996347183"><ele>117.33333333333334</ele><time>2026-04-13T16:05:46Z</time></trkpt><trkpt lat="47.65192830426953" lon="0.9527005985011605"><ele>117.0</ele><time>2026-04-13T16:05:47Z</time></trkpt><trkpt lat="47.65191851285191" lon="0.9529847118410191"><ele>117.0</ele><time>2026-04-13T16:05:48Z</time></trkpt><trkpt lat="47.65192038822719" lon="0.9532604723692771"><ele>117.0</ele><time>2026-04-13T16:05:49Z</time></trkpt><trkpt lat="47.651958592886864" lon="0.9535498632136465"><ele>117.0</ele><time>2026-04-13T16:05:50Z</time></trkpt><trkpt lat="47.65202369092641" lon="0.9538456874924846"><ele>117.33333333333334</ele><time>2026-04-13T16:05:51Z</time></trkpt><trkpt lat="47.65210644726959" lon="0.9541057475109604"><ele>117.66666666666667</ele><time>2026-04-13T16:05:52Z</time></trkpt><trkpt lat="47.65217422550011" lon="0.9543441084153557"><ele>118.0</ele><time>2026-04-13T16:05:53Z</time></trkpt><trkpt lat="47.65222757538011" lon="0.9545485995289172"><ele>118.2</ele><time>2026-04-13T16:05:54Z</time></trkpt><trkpt lat="47.65227016973675" lon="0.9547211114433789"><ele>118.4</ele><time>2026-04-13T16:05:55Z</time></trkpt><trkpt lat="47.652313123469185" lon="0.9548792133243156"><ele>118.60000000000001</ele><time>2026-04-13T16:05:56Z</time></trkpt><trkpt lat="47.652347658823125" lon="0.9550228771458718"><ele>118.80000000000001</ele><time>2026-04-13T16:05:57Z</time></trkpt><trkpt lat="47.652361809625496" lon="0.9551469262035629"><ele>119.0</ele><time>2026-04-13T16:05:58Z</time></trkpt><trkpt lat="47.65237697293564" lon="0.9552755124790305"><ele>119.25</ele><time>2026-04-13T16:05:59Z</time></trkpt><trkpt lat="47.65244337952937" lon="0.9554017616104008"><ele>119.5</ele><time>2026-04-13T16:06:00Z</time></trkpt><trkpt lat="47.65256685664077" lon="0.9555173287688385"><ele>119.75</ele><time>2026-04-13T16:06:01Z</time></trkpt><trkpt lat="47.65272087787918" lon="0.9556347790930105"><ele>120.0</ele><time>2026-04-13T16:06:02Z</time></trkpt><trkpt lat="47.652886130508435" lon="0.9558005894577086"><ele>120.0</ele><time>2026-04-13T16:06:03Z</time></trkpt><trkpt lat="47.65305045271823" lon="0.9559800969281826"><ele>120.0</ele><time>2026-04-13T16:06:04Z</time></trkpt><trkpt lat="47.653221594082126" lon="0.956186630671238"><ele>120.0</ele><time>2026-04-13T16:06:05Z</time></trkpt><trkpt lat="47.65340018031797" lon="0.9564097261293997"><ele>120.0</ele><time>2026-04-13T16:06:06Z</time></trkpt><trkpt lat="47.65355586150226" lon="0.9566260363279162"><ele>120.0</ele><time>2026-04-13T16:06:07Z</time></trkpt><trkpt lat="47.65370530022564" lon="0.956851934066471"><ele>120.0</ele><time>2026-04-13T16:06:08Z</time></trkpt><trkpt lat="47.653853306607914" lon="0.957081514388201"><ele>120.0</ele><time>2026-04-13T16:06:09Z</time></trkpt><trkpt lat="47.65399261904958" lon="0.9573039027475674"><ele>120.0</ele><time>2026-04-13T16:06:10Z</time></trkpt><trkpt lat="47.654135006259175" lon="0.9575196724894255"><ele>120.0</ele><time>2026-04-13T16:06:11Z</time></trkpt><trkpt lat="47.65427291192991" lon="0.9577289338834363"><ele>120.33333333333334</ele><time>2026-04-13T16:06:12Z</time></trkpt><trkpt lat="47.654419698158975" lon="0.9579374756358527"><ele>120.66666666666667</ele><time>2026-04-13T16:06:13Z</time></trkpt><trkpt lat="47.65458118883446" lon="0.9581386946990638"><ele>121.0</ele><time>2026-04-13T16:06:14Z</time></trkpt><trkpt lat="47.65474406082553" lon="0.9583293414327527"><ele>121.0</ele><time>2026-04-13T16:06:15Z</time></trkpt><trkpt lat="47.6549101744429" lon="0.9585130400309888"><ele>121.0</ele><time>2026-04-13T16:06:16Z</time></trkpt><trkpt lat="47.65508361536869" lon="0.9586799465658606"><ele>121.0</ele><time>2026-04-13T16:06:17Z</time></trkpt><trkpt lat="47.65525244670317" lon="0.9588374376382631"><ele>121.33333333333334</ele><time>2026-04-13T16:06:18Z</time></trkpt><trkpt lat="47.65541918035442" lon="0.9589813349461636"><ele>121.66666666666666</ele><time>2026-04-13T16:06:19Z</time></trkpt><trkpt lat="47.65559007803284" lon="0.9591022074907901"><ele>122.0</ele><time>2026-04-13T16:06:20Z</time></trkpt><trkpt lat="47.65576927332855" lon="0.9592207068450254"><ele>122.0</ele><time>2026-04-13T16:06:21Z</time></trkpt><trkpt lat="47.655970971534764" lon="0.9593396148151215"><ele>122.0</ele><time>2026-04-13T16:06:22Z</time></trkpt><trkpt lat="47.65619507932958" lon="0.959436115336126"><ele>122.5</ele><time>2026-04-13T16:06:23Z</time></trkpt><trkpt lat="47.656428226097574" lon="0.9595242867349023"><ele>123.0</ele><time>2026-04-13T16:06:24Z</time></trkpt><trkpt lat="47.65666196077303" lon="0.9596564667481816"><ele>123.0</ele><time>2026-04-13T16:06:25Z</time></trkpt><trkpt lat="47.65690744836864" lon="0.9597236189063902"><ele>123.0</ele><time>2026-04-13T16:06:26Z</time></trkpt><trkpt lat="47.6571444803185" lon="0.9598257043828388"><ele>123.0</ele><time>2026-04-13T16:06:27Z</time></trkpt><trkpt lat="47.65740226503288" lon="0.9599389982847452"><ele>123.0</ele><time>2026-04-13T16:06:28Z</time></trkpt><trkpt lat="47.657668634613245" lon="0.9600548973477043"><ele>123.0</ele><time>2026-04-13T16:06:29Z</time></trkpt><trkpt lat="47.657914668382176" lon="0.9601573195865211"><ele>123.0</ele><time>2026-04-13T16:06:30Z</time></trkpt><trkpt lat="47.65814847423754" lon="0.9602469349220415"><ele>123.0</ele><time>2026-04-13T16:06:31Z</time></trkpt><trkpt lat="47.6583881116513" lon="0.9603418787842071"><ele>123.0</ele><time>2026-04-13T16:06:32Z</time></trkpt><trkpt lat="47.65862655901946" lon="0.9604376614267668"><ele>123.0</ele><time>2026-04-13T16:06:33Z</time></trkpt><trkpt lat="47.65886161985831" lon="0.9605335493805295"><ele>123.0</ele><time>2026-04-13T16:06:34Z</time></trkpt><trkpt lat="47.659108117374885" lon="0.9606306234550321"><ele>123.0</ele><time>2026-04-13T16:06:35Z</time></trkpt><trkpt lat="47.6593416955254" lon="0.9607214495591633"><ele>123.0</ele><time>2026-04-13T16:06:36Z</time></trkpt><trkpt lat="47.6595570296857" lon="0.9608190144919859"><ele>123.0</ele><time>2026-04-13T16:06:37Z</time></trkpt><trkpt lat="47.659753030807764" lon="0.9609178823555968"><ele>123.0</ele><time>2026-04-13T16:06:38Z</time></trkpt><trkpt lat="47.65994015350937" lon="0.9610198252393112"><ele>123.0</ele><time>2026-04-13T16:06:39Z</time></trkpt><trkpt lat="47.66013034394281" lon="0.9611403082597434"><ele>122.66666666666666</ele><time>2026-04-13T16:06:40Z</time></trkpt><trkpt lat="47.660324662903044" lon="0.9612756001162448"><ele>122.33333333333333</ele><time>2026-04-13T16:06:41Z</time></trkpt><trkpt lat="47.660503794577345" lon="0.9614099710848154"><ele>122.0</ele><time>2026-04-13T16:06:42Z</time></trkpt><trkpt lat="47.66067665443911" lon="0.9615463205838334"><ele>122.0</ele><time>2026-04-13T16:06:43Z</time></trkpt><trkpt lat="47.66086096382908" lon="0.9616843092361134"><ele>122.0</ele><time>2026-04-13T16:06:44Z</time></trkpt><trkpt lat="47.66105108337661" lon="0.961820129932143"><ele>122.0</ele><time>2026-04-13T16:06:45Z</time></trkpt><trkpt lat="47.66122562159148" lon="0.9619545148332473"><ele>122.0</ele><time>2026-04-13T16:06:46Z</time></trkpt><trkpt lat="47.661396205133066" lon="0.9620814682259915"><ele>122.0</ele><time>2026-04-13T16:06:47Z</time></trkpt><trkpt lat="47.66157245741972" lon="0.9622100677707996"><ele>122.0</ele><time>2026-04-13T16:06:48Z</time></trkpt><trkpt lat="47.661748042229966" lon="0.9623406798146221"><ele>122.0</ele><time>2026-04-13T16:06:49Z</time></trkpt><trkpt lat="47.661917417130425" lon="0.9624677570686093"><ele>122.0</ele><time>2026-04-13T16:06:50Z</time></trkpt><trkpt lat="47.662083430913455" lon="0.9625920790962698"><ele>122.0</ele><time>2026-04-13T16:06:51Z</time></trkpt><trkpt lat="47.662247824958506" lon="0.9627193431576411"><ele>122.0</ele><time>2026-04-13T16:06:52Z</time></trkpt><trkpt lat="47.66241768403071" lon="0.9628529164572914"><ele>122.0</ele><time>2026-04-13T16:06:53Z</time></trkpt><trkpt lat="47.662587772852035" lon="0.962991045644598"><ele>122.0</ele><time>2026-04-13T16:06:54Z</time></trkpt><trkpt lat="47.66275281583786" lon="0.9631379305567421"><ele>122.33333333333333</ele><time>2026-04-13T16:06:55Z</time></trkpt><trkpt lat="47.662908352060136" lon="0.963289167276869"><ele>122.66666666666666</ele><time>2026-04-13T16:06:56Z</time></trkpt><trkpt lat="47.663058197233596" lon="0.9634356365701819"><ele>123.0</ele><time>2026-04-13T16:06:57Z</time></trkpt><trkpt lat="47.663211108115625" lon="0.9635894718610455"><ele>123.0</ele><time>2026-04-13T16:06:58Z</time></trkpt><trkpt lat="47.663361360732715" lon="0.9637528709806863"><ele>123.0</ele><time>2026-04-13T16:06:59Z</time></trkpt><trkpt lat="47.66349780048509" lon="0.9638950537022571"><ele>123.0</ele><time>2026-04-13T16:07:00Z</time></trkpt><trkpt lat="47.663626104976736" lon="0.9640287950704565"><ele>122.75</ele><time>2026-04-13T16:07:01Z</time></trkpt><trkpt lat="47.663713689615115" lon="0.9641570509705468"><ele>122.5</ele><time>2026-04-13T16:07:02Z</time></trkpt><trkpt lat="47.66378011832265" lon="0.964293426645106"><ele>122.25</ele><time>2026-04-13T16:07:03Z</time></trkpt><trkpt lat="47.663836996142514" lon="0.9644700394564566"><ele>122.0</ele><time>2026-04-13T16:07:04Z</time></trkpt><trkpt lat="47.66393603300965" lon="0.9646634407283384"><ele>122.0</ele><time>2026-04-13T16:07:05Z</time></trkpt><trkpt lat="47.664066713803216" lon="0.9648733834550314"><ele>122.0</ele><time>2026-04-13T16:07:06Z</time></trkpt><trkpt lat="47.66419803382706" lon="0.9650963492988958"><ele>122.0</ele><time>2026-04-13T16:07:07Z</time></trkpt><trkpt lat="47.664349216882684" lon="0.965339358629349"><ele>122.0</ele><time>2026-04-13T16:07:08Z</time></trkpt><trkpt lat="47.66450315268915" lon="0.9656080425050891"><ele>122.0</ele><time>2026-04-13T16:07:09Z</time></trkpt><trkpt lat="47.66462796998093" lon="0.9658686616975061"><ele>122.0</ele><time>2026-04-13T16:07:10Z</time></trkpt><trkpt lat="47.66476191090066" lon="0.9661475995632492"><ele>122.0</ele><time>2026-04-13T16:07:11Z</time></trkpt><trkpt lat="47.664904121096704" lon="0.9664576969749791"><ele>122.0</ele><time>2026-04-13T16:07:12Z</time></trkpt><trkpt lat="47.665020712089714" lon="0.9667408523779693"><ele>122.0</ele><time>2026-04-13T16:07:13Z</time></trkpt><trkpt lat="47.66511712085375" lon="0.9669847996319993"><ele>122.0</ele><time>2026-04-13T16:07:14Z</time></trkpt><trkpt lat="47.66519101805313" lon="0.9672106735064755"><ele>122.0</ele><time>2026-04-13T16:07:15Z</time></trkpt><trkpt lat="47.665276016637634" lon="0.9674489781915804"><ele>122.0</ele><time>2026-04-13T16:07:16Z</time></trkpt><trkpt lat="47.66534749031704" lon="0.9676736236353358"><ele>122.0</ele><time>2026-04-13T16:07:17Z</time></trkpt><trkpt lat="47.66539853433848" lon="0.9678623236410696"><ele>121.66666666666666</ele><time>2026-04-13T16:07:18Z</time></trkpt><trkpt lat="47.66546729890435" lon="0.9680457276934105"><ele>121.33333333333334</ele><time>2026-04-13T16:07:19Z</time></trkpt><trkpt lat="47.66556572357735" lon="0.9682525647437689"><ele>121.0</ele><time>2026-04-13T16:07:20Z</time></trkpt><trkpt lat="47.6656515659951" lon="0.9684684661516426"><ele>121.0</ele><time>2026-04-13T16:07:21Z</time></trkpt><trkpt lat="47.665726659738304" lon="0.9686627860288216"><ele>121.0</ele><time>2026-04-13T16:07:22Z</time></trkpt><trkpt lat="47.66577701244786" lon="0.9688587437537299"><ele>121.0</ele><time>2026-04-13T16:07:23Z</time></trkpt><trkpt lat="47.66582012303502" lon="0.9690785961768957"><ele>121.0</ele><time>2026-04-13T16:07:24Z</time></trkpt><trkpt lat="47.66586787484462" lon="0.9692986367534375"><ele>121.0</ele><time>2026-04-13T16:07:25Z</time></trkpt><trkpt lat="47.66590704042349" lon="0.9694875661260781"><ele>121.0</ele><time>2026-04-13T16:07:26Z</time></trkpt><trkpt lat="47.665942375955375" lon="0.9696674508155141"><ele>121.0</ele><time>2026-04-13T16:07:27Z</time></trkpt><trkpt lat="47.66597707284873" lon="0.9698483031383983"><ele>121.0</ele><time>2026-04-13T16:07:28Z</time></trkpt><trkpt lat="47.666005808670114" lon="0.9700679198258086"><ele>120.75</ele><time>2026-04-13T16:07:29Z</time></trkpt><trkpt lat="47.6660262269261" lon="0.9702868568195728"><ele>120.5</ele><time>2026-04-13T16:07:30Z</time></trkpt><trkpt lat="47.66604700295846" lon="0.9704774279004881"><ele>120.25</ele><time>2026-04-13T16:07:31Z</time></trkpt><trkpt lat="47.6660753268776" lon="0.9706548288484879"><ele>120.0</ele><time>2026-04-13T16:07:32Z</time></trkpt><trkpt lat="47.666105308069575" lon="0.9708246774134139"><ele>120.0</ele><time>2026-04-13T16:07:33Z</time></trkpt><trkpt lat="47.666128310527405" lon="0.970984994856504"><ele>120.0</ele><time>2026-04-13T16:07:34Z</time></trkpt><trkpt lat="47.666154865855255" lon="0.9711429594535814"><ele>120.0</ele><time>2026-04-13T16:07:35Z</time></trkpt><trkpt lat="47.66618345496478" lon="0.9713174383559809"><ele>120.0</ele><time>2026-04-13T16:07:36Z</time></trkpt><trkpt lat="47.666212525433366" lon="0.9714966296618839"><ele>120.0</ele><time>2026-04-13T16:07:37Z</time></trkpt><trkpt lat="47.666237580942436" lon="0.9716496251666473"><ele>120.0</ele><time>2026-04-13T16:07:38Z</time></trkpt><trkpt lat="47.66626481852418" lon="0.9717852817671794"><ele>120.0</ele><time>2026-04-13T16:07:39Z</time></trkpt><trkpt lat="47.66627786850265" lon="0.9719314491530453"><ele>120.0</ele><time>2026-04-13T16:07:40Z</time></trkpt><trkpt lat="47.66629360602694" lon="0.9720422959009226"><ele>120.0</ele><time>2026-04-13T16:07:41Z</time></trkpt><trkpt lat="47.666292090701276" lon="0.9721388369801202"><ele>120.0</ele><time>2026-04-13T16:07:43Z</time></trkpt><trkpt lat="47.66614890784816" lon="0.9722455219642668"><ele>120.25</ele><time>2026-04-13T16:07:45Z</time></trkpt><trkpt lat="47.66603031618984" lon="0.9722951150257959"><ele>120.5</ele><time>2026-04-13T16:07:46Z</time></trkpt><trkpt lat="47.665890085196295" lon="0.9723819541285319"><ele>120.75</ele><time>2026-04-13T16:07:47Z</time></trkpt><trkpt lat="47.66574159947725" lon="0.9724854004735088"><ele>121.0</ele><time>2026-04-13T16:07:48Z</time></trkpt><trkpt lat="47.665572303187425" lon="0.9726063803071572"><ele>121.0</ele><time>2026-04-13T16:07:49Z</time></trkpt><trkpt lat="47.66538885905899" lon="0.9727466147682268"><ele>121.0</ele><time>2026-04-13T16:07:50Z</time></trkpt><trkpt lat="47.665192122626806" lon="0.9729111446350578"><ele>121.0</ele><time>2026-04-13T16:07:51Z</time></trkpt><trkpt lat="47.66497842477594" lon="0.9730890125054199"><ele>120.5</ele><time>2026-04-13T16:07:52Z</time></trkpt><trkpt lat="47.66476500823587" lon="0.9732646408012731"><ele>120.0</ele><time>2026-04-13T16:07:53Z</time></trkpt><trkpt lat="47.66457100118973" lon="0.9734292084527172"><ele>119.5</ele><time>2026-04-13T16:07:54Z</time></trkpt><trkpt lat="47.66437576210949" lon="0.9735923201510859"><ele>119.0</ele><time>2026-04-13T16:07:55Z</time></trkpt><trkpt lat="47.66417119729193" lon="0.9737603804558427"><ele>119.0</ele><time>2026-04-13T16:07:56Z</time></trkpt><trkpt lat="47.66398148180834" lon="0.9739224058086791"><ele>119.0</ele><time>2026-04-13T16:07:57Z</time></trkpt><trkpt lat="47.66381505442891" lon="0.9740746457635796"><ele>119.0</ele><time>2026-04-13T16:07:58Z</time></trkpt><trkpt lat="47.66368052471057" lon="0.9742055082603336"><ele>119.2</ele><time>2026-04-13T16:07:59Z</time></trkpt><trkpt lat="47.66357812513614" lon="0.9743173191357919"><ele>119.4</ele><time>2026-04-13T16:08:00Z</time></trkpt><trkpt lat="47.66349299515425" lon="0.9744124555924945"><ele>119.6</ele><time>2026-04-13T16:08:01Z</time></trkpt><trkpt lat="47.66343473958895" lon="0.9744738386056156"><ele>119.8</ele><time>2026-04-13T16:08:02Z</time></trkpt><trkpt lat="47.66336803088687" lon="0.9745377221348407"><ele>120.0</ele><time>2026-04-13T16:08:04Z</time></trkpt><trkpt lat="47.66338215887397" lon="0.9747206145737028"><ele>120.0</ele><time>2026-04-13T16:08:07Z</time></trkpt><trkpt lat="47.66342630918912" lon="0.9748220571014572"><ele>120.0</ele><time>2026-04-13T16:08:08Z</time></trkpt><trkpt lat="47.6634852160186" lon="0.9749390953815036"><ele>120.0</ele><time>2026-04-13T16:08:09Z</time></trkpt><trkpt lat="47.66354924876395" lon="0.9750793195160828"><ele>120.0</ele><time>2026-04-13T16:08:10Z</time></trkpt><trkpt lat="47.6636198237797" lon="0.9752480505001856"><ele>120.0</ele><time>2026-04-13T16:08:11Z</time></trkpt><trkpt lat="47.66369586029281" lon="0.9754293774999689"><ele>119.33333333333334</ele><time>2026-04-13T16:08:12Z</time></trkpt><trkpt lat="47.663777459766074" lon="0.9756236655838695"><ele>118.66666666666667</ele><time>2026-04-13T16:08:13Z</time></trkpt><trkpt lat="47.663865864881906" lon="0.9758283433528165"><ele>118.0</ele><time>2026-04-13T16:08:14Z</time></trkpt><trkpt lat="47.66396273487871" lon="0.9760580820755789"><ele>117.33333333333334</ele><time>2026-04-13T16:08:15Z</time></trkpt><trkpt lat="47.66406179453598" lon="0.9762851025253119"><ele>116.66666666666666</ele><time>2026-04-13T16:08:16Z</time></trkpt><trkpt lat="47.664148321709874" lon="0.9764907771183498"><ele>116.0</ele><time>2026-04-13T16:08:17Z</time></trkpt><trkpt lat="47.66424058918289" lon="0.9766932272083245"><ele>116.0</ele><time>2026-04-13T16:08:18Z</time></trkpt><trkpt lat="47.66431949391368" lon="0.9768884034073883"><ele>116.0</ele><time>2026-04-13T16:08:19Z</time></trkpt><trkpt lat="47.66440066598916" lon="0.9770677935941414"><ele>116.0</ele><time>2026-04-13T16:08:20Z</time></trkpt><trkpt lat="47.66447422635876" lon="0.9772367290442151"><ele>116.0</ele><time>2026-04-13T16:08:21Z</time></trkpt><trkpt lat="47.66453895785458" lon="0.9773922509943117"><ele>115.75</ele><time>2026-04-13T16:08:22Z</time></trkpt><trkpt lat="47.66460767129879" lon="0.9775583591180976"><ele>115.5</ele><time>2026-04-13T16:08:23Z</time></trkpt><trkpt lat="47.66468031395316" lon="0.9777271837930601"><ele>115.25</ele><time>2026-04-13T16:08:24Z</time></trkpt><trkpt lat="47.664755090644306" lon="0.9778886351335765"><ele>115.0</ele><time>2026-04-13T16:08:25Z</time></trkpt><trkpt lat="47.6648132000413" lon="0.9780271904519999"><ele>115.0</ele><time>2026-04-13T16:08:26Z</time></trkpt><trkpt lat="47.66488097656221" lon="0.9781733951756867"><ele>115.0</ele><time>2026-04-13T16:08:27Z</time></trkpt><trkpt lat="47.66495983396389" lon="0.9783543614346535"><ele>115.0</ele><time>2026-04-13T16:08:28Z</time></trkpt><trkpt lat="47.66503555456179" lon="0.9785332910287153"><ele>115.0</ele><time>2026-04-13T16:08:29Z</time></trkpt><trkpt lat="47.665096524893244" lon="0.978693681739965"><ele>114.75</ele><time>2026-04-13T16:08:30Z</time></trkpt><trkpt lat="47.665159792163344" lon="0.9788432725668214"><ele>114.5</ele><time>2026-04-13T16:08:31Z</time></trkpt><trkpt lat="47.665229833463066" lon="0.9790063015637314"><ele>114.25</ele><time>2026-04-13T16:08:32Z</time></trkpt><trkpt lat="47.665299443421894" lon="0.9791619400770527"><ele>114.0</ele><time>2026-04-13T16:08:33Z</time></trkpt><trkpt lat="47.66535817830228" lon="0.979301533919995"><ele>114.80000000000001</ele><time>2026-04-13T16:08:34Z</time></trkpt><trkpt lat="47.66540830469745" lon="0.9794166154803184"><ele>115.60000000000001</ele><time>2026-04-13T16:08:35Z</time></trkpt><trkpt lat="47.66546507255815" lon="0.9795375917781206"><ele>116.4</ele><time>2026-04-13T16:08:36Z</time></trkpt><trkpt lat="47.665530530533104" lon="0.9796680368034165"><ele>117.2</ele><time>2026-04-13T16:08:37Z</time></trkpt><trkpt lat="47.66559570240105" lon="0.9797965599238262"><ele>118.0</ele><time>2026-04-13T16:08:38Z</time></trkpt><trkpt lat="47.66567058549339" lon="0.979950484293752"><ele>118.0</ele><time>2026-04-13T16:08:39Z</time></trkpt><trkpt lat="47.665741037851944" lon="0.9801125290705519"><ele>118.0</ele><time>2026-04-13T16:08:40Z</time></trkpt><trkpt lat="47.66581806502745" lon="0.9802929818152558"><ele>118.0</ele><time>2026-04-13T16:08:41Z</time></trkpt><trkpt lat="47.66590099314743" lon="0.9804876100350526"><ele>118.0</ele><time>2026-04-13T16:08:42Z</time></trkpt><trkpt lat="47.66599462518931" lon="0.9806961444525489"><ele>118.0</ele><time>2026-04-13T16:08:43Z</time></trkpt><trkpt lat="47.66608963306299" lon="0.9809173573168362"><ele>118.0</ele><time>2026-04-13T16:08:44Z</time></trkpt><trkpt lat="47.66618586173941" lon="0.9811399425692433"><ele>118.0</ele><time>2026-04-13T16:08:45Z</time></trkpt><trkpt lat="47.66626827714501" lon="0.9813270819516776"><ele>118.33333333333334</ele><time>2026-04-13T16:08:46Z</time></trkpt><trkpt lat="47.66634477570845" lon="0.9815053352923473"><ele>118.66666666666666</ele><time>2026-04-13T16:08:47Z</time></trkpt><trkpt lat="47.666430050345824" lon="0.9816889876019436"><ele>119.0</ele><time>2026-04-13T16:08:48Z</time></trkpt><trkpt lat="47.666521598864975" lon="0.981885478645567"><ele>119.0</ele><time>2026-04-13T16:08:49Z</time></trkpt><trkpt lat="47.666611559920504" lon="0.9820908417729092"><ele>119.0</ele><time>2026-04-13T16:08:50Z</time></trkpt><trkpt lat="47.66669449483492" lon="0.9822917111688322"><ele>119.0</ele><time>2026-04-13T16:08:51Z</time></trkpt><trkpt lat="47.66678017111808" lon="0.9824869137499529"><ele>119.0</ele><time>2026-04-13T16:08:52Z</time></trkpt><trkpt lat="47.66686542584365" lon="0.9826808845665589"><ele>119.0</ele><time>2026-04-13T16:08:53Z</time></trkpt><trkpt lat="47.66695490496456" lon="0.9828785840979533"><ele>119.0</ele><time>2026-04-13T16:08:54Z</time></trkpt><trkpt lat="47.66703930593455" lon="0.9830750381885255"><ele>118.66666666666666</ele><time>2026-04-13T16:08:55Z</time></trkpt><trkpt lat="47.66711610158501" lon="0.9832534623508887"><ele>118.33333333333334</ele><time>2026-04-13T16:08:56Z</time></trkpt><trkpt lat="47.66718868802784" lon="0.9834421248568236"><ele>118.0</ele><time>2026-04-13T16:08:57Z</time></trkpt><trkpt lat="47.66727073468081" lon="0.9836474196082182"><ele>117.66666666666667</ele><time>2026-04-13T16:08:58Z</time></trkpt><trkpt lat="47.66734956997422" lon="0.9838440963416568"><ele>117.33333333333334</ele><time>2026-04-13T16:08:59Z</time></trkpt><trkpt lat="47.667431471668515" lon="0.9840480631486542"><ele>117.0</ele><time>2026-04-13T16:09:00Z</time></trkpt><trkpt lat="47.66753029700728" lon="0.9842708640659773"><ele>116.66666666666666</ele><time>2026-04-13T16:09:01Z</time></trkpt><trkpt lat="47.66761723153774" lon="0.9844700297534874"><ele>116.33333333333333</ele><time>2026-04-13T16:09:02Z</time></trkpt><trkpt lat="47.66769404334075" lon="0.9846486229833699"><ele>116.0</ele><time>2026-04-13T16:09:03Z</time></trkpt><trkpt lat="47.6677832494264" lon="0.9848340270387909"><ele>116.0</ele><time>2026-04-13T16:09:04Z</time></trkpt><trkpt lat="47.667875357326324" lon="0.9850549480331022"><ele>116.0</ele><time>2026-04-13T16:09:05Z</time></trkpt><trkpt lat="47.667972602815496" lon="0.9852734966594269"><ele>116.0</ele><time>2026-04-13T16:09:06Z</time></trkpt><trkpt lat="47.668056951171664" lon="0.985462391936244"><ele>116.0</ele><time>2026-04-13T16:09:07Z</time></trkpt><trkpt lat="47.668135167675935" lon="0.9856334522386168"><ele>116.0</ele><time>2026-04-13T16:09:08Z</time></trkpt><trkpt lat="47.668209331464865" lon="0.9858037133629783"><ele>116.0</ele><time>2026-04-13T16:09:09Z</time></trkpt><trkpt lat="47.66827004848983" lon="0.9859584033939284"><ele>116.0</ele><time>2026-04-13T16:09:10Z</time></trkpt><trkpt lat="47.66832951223532" lon="0.9861040077579792"><ele>116.0</ele><time>2026-04-13T16:09:11Z</time></trkpt><trkpt lat="47.668386844657995" lon="0.9862459483133051"><ele>116.0</ele><time>2026-04-13T16:09:12Z</time></trkpt><trkpt lat="47.668441294824625" lon="0.9863802109231868"><ele>116.0</ele><time>2026-04-13T16:09:13Z</time></trkpt><trkpt lat="47.66849499262439" lon="0.9865101873495201"><ele>116.0</ele><time>2026-04-13T16:09:14Z</time></trkpt><trkpt lat="47.668544350708125" lon="0.9866252567852428"><ele>116.0</ele><time>2026-04-13T16:09:15Z</time></trkpt><trkpt lat="47.668599745443224" lon="0.9867405243115029"><ele>116.4</ele><time>2026-04-13T16:09:16Z</time></trkpt><trkpt lat="47.6686694869417" lon="0.9868506305316134"><ele>116.8</ele><time>2026-04-13T16:09:17Z</time></trkpt><trkpt lat="47.66873157097835" lon="0.9869600689396046"><ele>117.20000000000002</ele><time>2026-04-13T16:09:18Z</time></trkpt><trkpt lat="47.66876870066556" lon="0.9870711529003168"><ele>117.60000000000001</ele><time>2026-04-13T16:09:19Z</time></trkpt><trkpt lat="47.668806071611264" lon="0.987159236186624"><ele>118.0</ele><time>2026-04-13T16:09:20Z</time></trkpt><trkpt lat="47.66887425208516" lon="0.9872751504837781"><ele>118.00000000000001</ele><time>2026-04-13T16:09:22Z</time></trkpt><trkpt lat="47.66891836032222" lon="0.9873817057724933"><ele>118.0</ele><time>2026-04-13T16:09:53Z</time></trkpt><trkpt lat="47.668959621217546" lon="0.9874619221537199"><ele>118.0</ele><time>2026-04-13T16:09:54Z</time></trkpt><trkpt lat="47.66900633960694" lon="0.9875640734072144"><ele>118.0</ele><time>2026-04-13T16:09:55Z</time></trkpt><trkpt lat="47.66905504498904" lon="0.9876706493807706"><ele>118.00000000000001</ele><time>2026-04-13T16:09:56Z</time></trkpt><trkpt lat="47.669103371559224" lon="0.9877734399666402"><ele>118.0</ele><time>2026-04-13T16:09:57Z</time></trkpt><trkpt lat="47.669141105206776" lon="0.9878615147761985"><ele>118.4</ele><time>2026-04-13T16:09:58Z</time></trkpt><trkpt lat="47.66918130248412" lon="0.9879587228220527"><ele>118.80000000000001</ele><time>2026-04-13T16:09:59Z</time></trkpt><trkpt lat="47.66923209911952" lon="0.9880571506559829"><ele>119.2</ele><time>2026-04-13T16:10:00Z</time></trkpt><trkpt lat="47.66928728687764" lon="0.9881726792861152"><ele>119.6</ele><time>2026-04-13T16:10:01Z</time></trkpt><trkpt lat="47.66933908029433" lon="0.9882825885543823"><ele>120.0</ele><time>2026-04-13T16:10:02Z</time></trkpt><trkpt lat="47.66940079525469" lon="0.9884124908171028"><ele>119.4</ele><time>2026-04-13T16:10:03Z</time></trkpt><trkpt lat="47.66946173643008" lon="0.9885681340746485"><ele>118.8</ele><time>2026-04-13T16:10:04Z</time></trkpt><trkpt lat="47.669523914721395" lon="0.988716954093178"><ele>118.19999999999999</ele><time>2026-04-13T16:10:05Z</time></trkpt><trkpt lat="47.66957724262255" lon="0.9888398484406895"><ele>117.6</ele><time>2026-04-13T16:10:06Z</time></trkpt><trkpt lat="47.66963263127617" lon="0.9889455595513365"><ele>117.0</ele><time>2026-04-13T16:10:07Z</time></trkpt><trkpt lat="47.6696787258208" lon="0.9890456130428857"><ele>117.0</ele><time>2026-04-13T16:10:08Z</time></trkpt><trkpt lat="47.669734680699904" lon="0.989155875965517"><ele>117.0</ele><time>2026-04-13T16:10:09Z</time></trkpt><trkpt lat="47.66979904586418" lon="0.9892891768851825"><ele>117.0</ele><time>2026-04-13T16:10:10Z</time></trkpt><trkpt lat="47.66985965310687" lon="0.9894446139825145"><ele>117.0</ele><time>2026-04-13T16:10:11Z</time></trkpt><trkpt lat="47.669931465715095" lon="0.9896145834486643"><ele>117.0</ele><time>2026-04-13T16:10:12Z</time></trkpt><trkpt lat="47.670014092202884" lon="0.9898138837847996"><ele>117.0</ele><time>2026-04-13T16:10:13Z</time></trkpt><trkpt lat="47.670103743338515" lon="0.9900176282683"><ele>117.0</ele><time>2026-04-13T16:10:14Z</time></trkpt><trkpt lat="47.670203634792905" lon="0.9902272199472851"><ele>117.0</ele><time>2026-04-13T16:10:15Z</time></trkpt><trkpt lat="47.67029206666118" lon="0.9904142137152054"><ele>117.0</ele><time>2026-04-13T16:10:16Z</time></trkpt><trkpt lat="47.67036823056174" lon="0.9905757830039296"><ele>117.0</ele><time>2026-04-13T16:10:17Z</time></trkpt><trkpt lat="47.670434843362244" lon="0.9907246458027535"><ele>117.0</ele><time>2026-04-13T16:10:18Z</time></trkpt><trkpt lat="47.67049877565722" lon="0.9908688032487132"><ele>117.0</ele><time>2026-04-13T16:10:19Z</time></trkpt><trkpt lat="47.67057019888164" lon="0.9910228562579104"><ele>117.0</ele><time>2026-04-13T16:10:20Z</time></trkpt><trkpt lat="47.67064665208917" lon="0.9911858904344851"><ele>117.0</ele><time>2026-04-13T16:10:21Z</time></trkpt><trkpt lat="47.67072306274062" lon="0.99134797731895"><ele>117.0</ele><time>2026-04-13T16:10:22Z</time></trkpt><trkpt lat="47.67079448340635" lon="0.9914904940883313"><ele>117.0</ele><time>2026-04-13T16:10:23Z</time></trkpt><trkpt lat="47.67087594793903" lon="0.9916437294456063"><ele>117.0</ele><time>2026-04-13T16:10:24Z</time></trkpt><trkpt lat="47.67096588847751" lon="0.9918148684906862"><ele>117.0</ele><time>2026-04-13T16:10:25Z</time></trkpt><trkpt lat="47.67106407427576" lon="0.991989363180359"><ele>117.0</ele><time>2026-04-13T16:10:26Z</time></trkpt><trkpt lat="47.67115258751951" lon="0.9921418577112109"><ele>116.5</ele><time>2026-04-13T16:10:27Z</time></trkpt><trkpt lat="47.67124494971218" lon="0.9922796380434329"><ele>116.0</ele><time>2026-04-13T16:10:28Z</time></trkpt><trkpt lat="47.67133627444018" lon="0.9924250834699297"><ele>115.5</ele><time>2026-04-13T16:10:29Z</time></trkpt><trkpt lat="47.67143477985877" lon="0.9925793588681514"><ele>115.0</ele><time>2026-04-13T16:10:30Z</time></trkpt><trkpt lat="47.67180078709499" lon="0.992724531460341"><ele>115.0</ele><time>2026-04-13T16:10:32Z</time></trkpt><trkpt lat="47.67193094769605" lon="0.9928967480059807"><ele>115.0</ele><time>2026-04-13T16:10:33Z</time></trkpt><trkpt lat="47.67204817092314" lon="0.9930483498260404"><ele>115.0</ele><time>2026-04-13T16:10:34Z</time></trkpt><trkpt lat="47.67216681953818" lon="0.9931977613919272"><ele>115.5</ele><time>2026-04-13T16:10:35Z</time></trkpt><trkpt lat="47.672291774914484" lon="0.9933541145073858"><ele>116.0</ele><time>2026-04-13T16:10:36Z</time></trkpt><trkpt lat="47.672410352241485" lon="0.9934926114726522"><ele>116.5</ele><time>2026-04-13T16:10:37Z</time></trkpt><trkpt lat="47.67251212806865" lon="0.9935973204854731"><ele>117.0</ele><time>2026-04-13T16:10:38Z</time></trkpt><trkpt lat="47.672609239923496" lon="0.9936950263662752"><ele>117.0</ele><time>2026-04-13T16:10:39Z</time></trkpt><trkpt lat="47.67269953480888" lon="0.9937734662121277"><ele>117.0</ele><time>2026-04-13T16:10:40Z</time></trkpt><trkpt lat="47.67278590538378" lon="0.9938662120984231"><ele>117.0</ele><time>2026-04-13T16:10:41Z</time></trkpt><trkpt lat="47.672859060658986" lon="0.9939543187873631"><ele>117.0</ele><time>2026-04-13T16:10:42Z</time></trkpt><trkpt lat="47.67321408013124" lon="0.9945722440540969"><ele>117.33333333333334</ele><time>2026-04-13T16:10:43Z</time></trkpt><trkpt lat="47.673207127920044" lon="0.9947233073502275"><ele>117.66666666666667</ele><time>2026-04-13T16:10:44Z</time></trkpt><trkpt lat="47.67319827509116" lon="0.9948509159849147"><ele>118.0</ele><time>2026-04-13T16:10:45Z</time></trkpt><trkpt lat="47.672815006355854" lon="0.9951612146446911"><ele>118.0</ele><time>2026-04-13T16:10:46Z</time></trkpt><trkpt lat="47.67290104164771" lon="0.9951651370483435"><ele>118.00000000000001</ele><time>2026-04-13T16:10:50Z</time></trkpt><trkpt lat="47.67293608405552" lon="0.9950282415788355"><ele>118.00000000000001</ele><time>2026-04-13T16:10:51Z</time></trkpt><trkpt lat="47.6729838568428" lon="0.9948942459455575"><ele>118.0</ele><time>2026-04-13T16:10:52Z</time></trkpt><trkpt lat="47.673048262051125" lon="0.9947485979899455"><ele>118.0</ele><time>2026-04-13T16:10:53Z</time></trkpt><trkpt lat="47.67308994614348" lon="0.9946275948847498"><ele>118.0</ele><time>2026-04-13T16:10:54Z</time></trkpt><trkpt lat="47.67312310239482" lon="0.9945238934177388"><ele>118.00000000000001</ele><time>2026-04-13T16:10:55Z</time></trkpt><trkpt lat="47.673161723474685" lon="0.9944389176088189"><ele>118.00000000000001</ele><time>2026-04-13T16:10:56Z</time></trkpt><trkpt lat="47.67324645770897" lon="0.9943253557478112"><ele>118.0</ele><time>2026-04-13T16:10:58Z</time></trkpt><trkpt lat="47.673367310837534" lon="0.9943943708631643"><ele>118.0</ele><time>2026-04-13T16:11:00Z</time></trkpt><trkpt lat="47.673435581052765" lon="0.9944923176115703"><ele>118.0</ele><time>2026-04-13T16:11:01Z</time></trkpt><trkpt lat="47.67353062705422" lon="0.994596020419305"><ele>118.0</ele><time>2026-04-13T16:11:02Z</time></trkpt><trkpt lat="47.67364526546693" lon="0.9947007205672153"><ele>118.0</ele><time>2026-04-13T16:11:03Z</time></trkpt><trkpt lat="47.67377998601982" lon="0.9948310278042513"><ele>118.0</ele><time>2026-04-13T16:11:04Z</time></trkpt><trkpt lat="47.6739383187484" lon="0.9949810069442652"><ele>118.66666666666667</ele><time>2026-04-13T16:11:05Z</time></trkpt><trkpt lat="47.674110653229114" lon="0.9951352133352445"><ele>119.33333333333334</ele><time>2026-04-13T16:11:06Z</time></trkpt><trkpt lat="47.67428353017169" lon="0.9952830989285003"><ele>120.0</ele><time>2026-04-13T16:11:07Z</time></trkpt><trkpt lat="47.674461944611416" lon="0.9954314898104573"><ele>120.33333333333334</ele><time>2026-04-13T16:11:08Z</time></trkpt><trkpt lat="47.674619295192436" lon="0.9955664607520797"><ele>120.66666666666667</ele><time>2026-04-13T16:11:09Z</time></trkpt><trkpt lat="47.67477234648299" lon="0.9957007090979438"><ele>121.0</ele><time>2026-04-13T16:11:10Z</time></trkpt><trkpt lat="47.674943121260824" lon="0.9958396818030978"><ele>121.33333333333334</ele><time>2026-04-13T16:11:11Z</time></trkpt><trkpt lat="47.67512678593478" lon="0.9959922655962901"><ele>121.66666666666666</ele><time>2026-04-13T16:11:12Z</time></trkpt><trkpt lat="47.675308660022836" lon="0.9961410377993755"><ele>122.0</ele><time>2026-04-13T16:11:13Z</time></trkpt><trkpt lat="47.67548942445853" lon="0.9962970357397133"><ele>122.0</ele><time>2026-04-13T16:11:14Z</time></trkpt><trkpt lat="47.675685531140786" lon="0.9964721551783707"><ele>122.0</ele><time>2026-04-13T16:11:15Z</time></trkpt><trkpt lat="47.67590342564941" lon="0.9966686442671083"><ele>122.5</ele><time>2026-04-13T16:11:16Z</time></trkpt><trkpt lat="47.6761356334124" lon="0.9968672468504964"><ele>123.0</ele><time>2026-04-13T16:11:17Z</time></trkpt><trkpt lat="47.676348256818784" lon="0.99704891500949"><ele>123.0</ele><time>2026-04-13T16:11:18Z</time></trkpt><trkpt lat="47.676517304294734" lon="0.9972264330662557"><ele>123.0</ele><time>2026-04-13T16:11:19Z</time></trkpt><trkpt lat="47.67668649143975" lon="0.9973521874536799"><ele>123.0</ele><time>2026-04-13T16:11:20Z</time></trkpt><trkpt lat="47.67684729451027" lon="0.9974990348671862"><ele>122.0</ele><time>2026-04-13T16:11:21Z</time></trkpt><trkpt lat="47.67701208381692" lon="0.9976434297476818"><ele>121.0</ele><time>2026-04-13T16:11:22Z</time></trkpt><trkpt lat="47.67717941090805" lon="0.9977946461258285"><ele>120.0</ele><time>2026-04-13T16:11:23Z</time></trkpt><trkpt lat="47.67733924179608" lon="0.9979402157977271"><ele>120.0</ele><time>2026-04-13T16:11:24Z</time></trkpt><trkpt lat="47.67749154765492" lon="0.9980714383984854"><ele>120.0</ele><time>2026-04-13T16:11:25Z</time></trkpt><trkpt lat="47.67763414314839" lon="0.998199339109014"><ele>120.0</ele><time>2026-04-13T16:11:26Z</time></trkpt><trkpt lat="47.677780821073995" lon="0.9983255709902572"><ele>119.66666666666666</ele><time>2026-04-13T16:11:27Z</time></trkpt><trkpt lat="47.67792192178964" lon="0.9984482893756539"><ele>119.33333333333333</ele><time>2026-04-13T16:11:28Z</time></trkpt><trkpt lat="47.67806136074814" lon="0.9986010081003576"><ele>119.0</ele><time>2026-04-13T16:11:29Z</time></trkpt><trkpt lat="47.67821513867389" lon="0.9987490118918131"><ele>119.0</ele><time>2026-04-13T16:11:30Z</time></trkpt><trkpt lat="47.67837363835462" lon="0.99889294430566"><ele>119.0</ele><time>2026-04-13T16:11:31Z</time></trkpt><trkpt lat="47.678540628413764" lon="0.999010871880618"><ele>119.0</ele><time>2026-04-13T16:11:32Z</time></trkpt><trkpt lat="47.67871763026516" lon="0.9991669281189974"><ele>119.0</ele><time>2026-04-13T16:11:33Z</time></trkpt><trkpt lat="47.678911935175236" lon="0.9993390041439912"><ele>119.0</ele><time>2026-04-13T16:11:34Z</time></trkpt><trkpt lat="47.67909726168677" lon="0.9995022044848015"><ele>119.0</ele><time>2026-04-13T16:11:35Z</time></trkpt><trkpt lat="47.67927157731399" lon="0.9996462519826456"><ele>119.33333333333333</ele><time>2026-04-13T16:11:36Z</time></trkpt><trkpt lat="47.67945517615611" lon="0.9997970161379037"><ele>119.66666666666666</ele><time>2026-04-13T16:11:37Z</time></trkpt><trkpt lat="47.67962280772802" lon="0.9999635094351387"><ele>120.0</ele><time>2026-04-13T16:11:38Z</time></trkpt><trkpt lat="47.67980005610277" lon="1.0000900352037791"><ele>120.0</ele><time>2026-04-13T16:11:39Z</time></trkpt><trkpt lat="47.679979186973775" lon="1.0002434891523075"><ele>120.0</ele><time>2026-04-13T16:11:40Z</time></trkpt><trkpt lat="47.68014856804837" lon="1.000395980558783"><ele>120.0</ele><time>2026-04-13T16:11:41Z</time></trkpt><trkpt lat="47.68031520812875" lon="1.0005386006275163"><ele>120.0</ele><time>2026-04-13T16:11:42Z</time></trkpt><trkpt lat="47.68050385175347" lon="1.000714520679379"><ele>120.0</ele><time>2026-04-13T16:11:43Z</time></trkpt><trkpt lat="47.680705417933844" lon="1.0008989850002767"><ele>119.5</ele><time>2026-04-13T16:11:44Z</time></trkpt><trkpt lat="47.68092733059542" lon="1.0010836798673566"><ele>119.0</ele><time>2026-04-13T16:11:45Z</time></trkpt><trkpt lat="47.681158653779136" lon="1.0012852246908377"><ele>119.0</ele><time>2026-04-13T16:11:46Z</time></trkpt><trkpt lat="47.681394911544814" lon="1.001494906454938"><ele>119.0</ele><time>2026-04-13T16:11:47Z</time></trkpt><trkpt lat="47.68161856271708" lon="1.0016928931728242"><ele>118.5</ele><time>2026-04-13T16:11:48Z</time></trkpt><trkpt lat="47.68182116637607" lon="1.0018787823054527"><ele>118.0</ele><time>2026-04-13T16:11:49Z</time></trkpt><trkpt lat="47.68200466726693" lon="1.002038071559925"><ele>117.66666666666667</ele><time>2026-04-13T16:11:50Z</time></trkpt><trkpt lat="47.682193027171465" lon="1.0021969612341333"><ele>117.33333333333334</ele><time>2026-04-13T16:11:51Z</time></trkpt><trkpt lat="47.6823842534238" lon="1.0023547006640776"><ele>117.0</ele><time>2026-04-13T16:11:52Z</time></trkpt><trkpt lat="47.68257396934645" lon="1.0025147634884675"><ele>117.0</ele><time>2026-04-13T16:11:53Z</time></trkpt><trkpt lat="47.6827718589945" lon="1.00268418889537"><ele>117.0</ele><time>2026-04-13T16:11:54Z</time></trkpt><trkpt lat="47.68295787835897" lon="1.0028439364374488"><ele>117.0</ele><time>2026-04-13T16:11:55Z</time></trkpt><trkpt lat="47.68314155590506" lon="1.0030046146800302"><ele>117.0</ele><time>2026-04-13T16:11:56Z</time></trkpt><trkpt lat="47.68332564019893" lon="1.0031691052122733"><ele>117.0</ele><time>2026-04-13T16:11:57Z</time></trkpt><trkpt lat="47.68351199281101" lon="1.0033347886924104"><ele>117.0</ele><time>2026-04-13T16:11:58Z</time></trkpt><trkpt lat="47.68368957775963" lon="1.003490116273192"><ele>116.5</ele><time>2026-04-13T16:11:59Z</time></trkpt><trkpt lat="47.68387951723285" lon="1.0036584939794293"><ele>116.0</ele><time>2026-04-13T16:12:00Z</time></trkpt><trkpt lat="47.68409169268725" lon="1.0038540669371947"><ele>116.0</ele><time>2026-04-13T16:12:01Z</time></trkpt><trkpt lat="47.68430580412683" lon="1.0040475883060145"><ele>116.0</ele><time>2026-04-13T16:12:02Z</time></trkpt><trkpt lat="47.68451623555018" lon="1.0042294209751657"><ele>116.0</ele><time>2026-04-13T16:12:03Z</time></trkpt><trkpt lat="47.68473114210581" lon="1.0044152657407772"><ele>116.0</ele><time>2026-04-13T16:12:04Z</time></trkpt><trkpt lat="47.68494009088529" lon="1.0045933455218283"><ele>116.0</ele><time>2026-04-13T16:12:05Z</time></trkpt><trkpt lat="47.685136490643984" lon="1.0047643649698987"><ele>116.0</ele><time>2026-04-13T16:12:06Z</time></trkpt><trkpt lat="47.685310330602555" lon="1.0049153348277238"><ele>116.0</ele><time>2026-04-13T16:12:07Z</time></trkpt><trkpt lat="47.6854717406037" lon="1.0050515443028962"><ele>116.25</ele><time>2026-04-13T16:12:08Z</time></trkpt><trkpt lat="47.68561595776278" lon="1.005170986297777"><ele>116.5</ele><time>2026-04-13T16:12:09Z</time></trkpt><trkpt lat="47.68574946162947" lon="1.005275132470687"><ele>116.75</ele><time>2026-04-13T16:12:10Z</time></trkpt><trkpt lat="47.685867287050485" lon="1.0053502756543944"><ele>117.0</ele><time>2026-04-13T16:12:11Z</time></trkpt><trkpt lat="47.685972407724265" lon="1.0053915807901594"><ele>117.0</ele><time>2026-04-13T16:12:12Z</time></trkpt><trkpt lat="47.6860529885801" lon="1.0054587126857457"><ele>117.0</ele><time>2026-04-13T16:12:13Z</time></trkpt><trkpt lat="47.68612728983275" lon="1.005483542975451"><ele>117.0</ele><time>2026-04-13T16:12:14Z</time></trkpt><trkpt lat="47.68618336952568" lon="1.0055287502631585"><ele>117.0</ele><time>2026-04-13T16:12:15Z</time></trkpt><trkpt lat="47.68626639292938" lon="1.0056006178349524"><ele>117.0</ele><time>2026-04-13T16:12:17Z</time></trkpt><trkpt lat="47.686332843153274" lon="1.0056503250487536"><ele>117.0</ele><time>2026-04-13T16:12:19Z</time></trkpt><trkpt lat="47.68623556720948" lon="1.0058024390578926"><ele>117.19999999999999</ele><time>2026-04-13T16:12:20Z</time></trkpt><trkpt lat="47.68618837332208" lon="1.005900346655578"><ele>117.39999999999999</ele><time>2026-04-13T16:12:21Z</time></trkpt><trkpt lat="47.686142137880694" lon="1.0060225425020055"><ele>117.60000000000001</ele><time>2026-04-13T16:12:22Z</time></trkpt><trkpt lat="47.68607258753112" lon="1.0061403717276685"><ele>117.80000000000001</ele><time>2026-04-13T16:12:23Z</time></trkpt><trkpt lat="47.68597116645157" lon="1.0062825357814627"><ele>118.0</ele><time>2026-04-13T16:12:24Z</time></trkpt><trkpt lat="47.685882370201895" lon="1.0064120608711038"><ele>117.5</ele><time>2026-04-13T16:12:25Z</time></trkpt><trkpt lat="47.68578761917" lon="1.0065465544426084"><ele>117.0</ele><time>2026-04-13T16:12:26Z</time></trkpt><trkpt lat="47.68569494761235" lon="1.0066762398512272"><ele>116.5</ele><time>2026-04-13T16:12:27Z</time></trkpt><trkpt lat="47.685579303342365" lon="1.0067810054517232"><ele>116.0</ele><time>2026-04-13T16:12:28Z</time></trkpt><trkpt lat="47.68550243602661" lon="1.0070012113153524"><ele>115.66666666666666</ele><time>2026-04-13T16:12:29Z</time></trkpt><trkpt lat="47.68541994932071" lon="1.0072304379188946"><ele>115.33333333333334</ele><time>2026-04-13T16:12:30Z</time></trkpt><trkpt lat="47.68534696762961" lon="1.007461838403181"><ele>115.0</ele><time>2026-04-13T16:12:31Z</time></trkpt><trkpt lat="47.68529910168278" lon="1.0076792238042391"><ele>115.5</ele><time>2026-04-13T16:12:32Z</time></trkpt><trkpt lat="47.68526308173698" lon="1.0078772939327265"><ele>116.0</ele><time>2026-04-13T16:12:33Z</time></trkpt><trkpt lat="47.6852465354559" lon="1.0080674000250827"><ele>116.5</ele><time>2026-04-13T16:12:34Z</time></trkpt><trkpt lat="47.685274614350114" lon="1.0082638444275993"><ele>117.0</ele><time>2026-04-13T16:12:35Z</time></trkpt><trkpt lat="47.68531488043034" lon="1.0084727031593321"><ele>117.33333333333334</ele><time>2026-04-13T16:12:36Z</time></trkpt><trkpt lat="47.68535059997658" lon="1.0086857008821657"><ele>117.66666666666667</ele><time>2026-04-13T16:12:37Z</time></trkpt><trkpt lat="47.685587599918755" lon="1.0088515924004051"><ele>118.0</ele><time>2026-04-13T16:12:38Z</time></trkpt><trkpt lat="47.68571953066299" lon="1.0090904894138844"><ele>118.0</ele><time>2026-04-13T16:12:39Z</time></trkpt><trkpt lat="47.685867778275686" lon="1.0093495116395321"><ele>118.0</ele><time>2026-04-13T16:12:40Z</time></trkpt><trkpt lat="47.68600271112103" lon="1.0096056327993692"><ele>118.0</ele><time>2026-04-13T16:12:41Z</time></trkpt><trkpt lat="47.68610750937466" lon="1.0098168760751756"><ele>118.0</ele><time>2026-04-13T16:12:42Z</time></trkpt><trkpt lat="47.686189204701705" lon="1.0099984432548286"><ele>118.0</ele><time>2026-04-13T16:12:43Z</time></trkpt><trkpt lat="47.68624582673761" lon="1.010156205319097"><ele>118.0</ele><time>2026-04-13T16:12:44Z</time></trkpt><trkpt lat="47.6862997271846" lon="1.0103031926965553"><ele>118.0</ele><time>2026-04-13T16:12:45Z</time></trkpt><trkpt lat="47.686336740157756" lon="1.0104151449359127"><ele>118.0</ele><time>2026-04-13T16:12:46Z</time></trkpt><trkpt lat="47.68635163112758" lon="1.010524748022003"><ele>118.00000000000001</ele><time>2026-04-13T16:12:47Z</time></trkpt><trkpt lat="47.68633594864108" lon="1.0106411262947004"><ele>118.00000000000001</ele><time>2026-04-13T16:12:48Z</time></trkpt><trkpt lat="47.68626731392972" lon="1.0107628018944432"><ele>118.0</ele><time>2026-04-13T16:12:49Z</time></trkpt><trkpt lat="47.68616265623142" lon="1.0108803392403276"><ele>118.0</ele><time>2026-04-13T16:12:50Z</time></trkpt><trkpt lat="47.68606052135523" lon="1.0110325929457724"><ele>117.66666666666667</ele><time>2026-04-13T16:12:51Z</time></trkpt><trkpt lat="47.68596018327749" lon="1.0112207199580263"><ele>117.33333333333334</ele><time>2026-04-13T16:12:52Z</time></trkpt><trkpt lat="47.685845573860526" lon="1.0114326292558478"><ele>117.0</ele><time>2026-04-13T16:12:53Z</time></trkpt><trkpt lat="47.685718462653576" lon="1.0116502744712113"><ele>117.25</ele><time>2026-04-13T16:12:54Z</time></trkpt><trkpt lat="47.68560353221138" lon="1.0118238890327884"><ele>117.5</ele><time>2026-04-13T16:12:55Z</time></trkpt><trkpt lat="47.685503960407274" lon="1.0119412499655729"><ele>117.75</ele><time>2026-04-13T16:12:56Z</time></trkpt><trkpt lat="47.685419218715715" lon="1.0120525447271733"><ele>118.0</ele><time>2026-04-13T16:12:57Z</time></trkpt><trkpt lat="47.68535145826687" lon="1.012145225056935"><ele>118.0</ele><time>2026-04-13T16:12:58Z</time></trkpt><trkpt lat="47.685305104827314" lon="1.0122278693315525"><ele>118.0</ele><time>2026-04-13T16:12:59Z</time></trkpt><trkpt lat="47.685270220209915" lon="1.0123132326464566"><ele>118.0</ele><time>2026-04-13T16:13:00Z</time></trkpt><trkpt lat="47.685260693962725" lon="1.0124130323619744"><ele>118.0</ele><time>2026-04-13T16:13:01Z</time></trkpt><trkpt lat="47.6852793106117" lon="1.012502369475645"><ele>118.0</ele><time>2026-04-13T16:13:02Z</time></trkpt><trkpt lat="47.68532041118381" lon="1.012574116477115"><ele>118.0</ele><time>2026-04-13T16:13:03Z</time></trkpt><trkpt lat="47.685394820920365" lon="1.012614332023613"><ele>118.0</ele><time>2026-04-13T16:13:05Z</time></trkpt><trkpt lat="47.685442926564605" lon="1.0125481042707931"><ele>118.0</ele><time>2026-04-13T16:13:09Z</time></trkpt></trkseg><trkseg><trkpt lat="47.685503235460935" lon="1.0127161992482425"><ele>118.0</ele><time>2026-04-13T17:50:17.152Z</time></trkpt><trkpt lat="47.685464587202944" lon="1.0125691973187265"><ele>118.00000000000001</ele><time>2026-04-13T17:50:21.152Z</time></trkpt><trkpt lat="47.685396545802334" lon="1.0125854974373922"><ele>118.00000000000001</ele><time>2026-04-13T17:50:38Z</time></trkpt><trkpt lat="47.68532945970119" lon="1.0124580334770057"><ele>118.0</ele><time>2026-04-13T17:50:40Z</time></trkpt><trkpt lat="47.68531011415663" lon="1.0123640478471376"><ele>118.0</ele><time>2026-04-13T17:50:41Z</time></trkpt><trkpt lat="47.68532882005232" lon="1.0121807539468144"><ele>118.0</ele><time>2026-04-13T17:50:43Z</time></trkpt><trkpt lat="47.68539688803925" lon="1.0121167275989518"><ele>118.00000000000001</ele><time>2026-04-13T17:50:44Z</time></trkpt><trkpt lat="47.6854756771723" lon="1.0120293340266844"><ele>118.00000000000001</ele><time>2026-04-13T17:50:45Z</time></trkpt><trkpt lat="47.685589067975286" lon="1.0118931978160977"><ele>118.0</ele><time>2026-04-13T17:50:46Z</time></trkpt><trkpt lat="47.68567019693958" lon="1.0117583884900119"><ele>118.0</ele><time>2026-04-13T17:50:47Z</time></trkpt><trkpt lat="47.6857570280047" lon="1.0116445287404157"><ele>117.66666666666667</ele><time>2026-04-13T17:50:48Z</time></trkpt><trkpt lat="47.68585786593509" lon="1.0114845345872812"><ele>117.33333333333334</ele><time>2026-04-13T17:50:49Z</time></trkpt><trkpt lat="47.68597954874519" lon="1.0112696816626283"><ele>117.0</ele><time>2026-04-13T17:50:50Z</time></trkpt><trkpt lat="47.686065749585815" lon="1.0110991163976315"><ele>117.19999999999999</ele><time>2026-04-13T17:50:51Z</time></trkpt><trkpt lat="47.68614213213059" lon="1.0109526557073631"><ele>117.39999999999999</ele><time>2026-04-13T17:50:52Z</time></trkpt><trkpt lat="47.68620848323394" lon="1.010833503390263"><ele>117.60000000000001</ele><time>2026-04-13T17:50:53Z</time></trkpt><trkpt lat="47.68626363811112" lon="1.010745466959985"><ele>117.80000000000001</ele><time>2026-04-13T17:50:54Z</time></trkpt><trkpt lat="47.68633605953478" lon="1.0106624728783775"><ele>118.0</ele><time>2026-04-13T17:50:56Z</time></trkpt><trkpt lat="47.68639682467189" lon="1.0105946517026436"><ele>118.0</ele><time>2026-04-13T17:50:59Z</time></trkpt><trkpt lat="47.686386114523366" lon="1.0104905168671519"><ele>118.00000000000001</ele><time>2026-04-13T17:51:00Z</time></trkpt><trkpt lat="47.686333054793124" lon="1.0103820234196332"><ele>118.00000000000001</ele><time>2026-04-13T17:51:01Z</time></trkpt><trkpt lat="47.68628369110598" lon="1.010233551890298"><ele>118.0</ele><time>2026-04-13T17:51:02Z</time></trkpt><trkpt lat="47.68621524030128" lon="1.0100552309840667"><ele>118.0</ele><time>2026-04-13T17:51:03Z</time></trkpt><trkpt lat="47.68614547889973" lon="1.0098822152598428"><ele>118.0</ele><time>2026-04-13T17:51:04Z</time></trkpt><trkpt lat="47.68603550543981" lon="1.0096777601379914"><ele>118.0</ele><time>2026-04-13T17:51:05Z</time></trkpt><trkpt lat="47.68593684124006" lon="1.0094249605592296"><ele>118.0</ele><time>2026-04-13T17:51:06Z</time></trkpt><trkpt lat="47.68578730861327" lon="1.0091835283915946"><ele>118.0</ele><time>2026-04-13T17:51:07Z</time></trkpt><trkpt lat="47.68566913852521" lon="1.008938036653932"><ele>118.0</ele><time>2026-04-13T17:51:08Z</time></trkpt><trkpt lat="47.685560580249955" lon="1.0087482787307513"><ele>118.0</ele><time>2026-04-13T17:51:09Z</time></trkpt><trkpt lat="47.6854582018472" lon="1.0085920574864218"><ele>118.0</ele><time>2026-04-13T17:51:10Z</time></trkpt><trkpt lat="47.68538818894311" lon="1.0084225128550712"><ele>118.0</ele><time>2026-04-13T17:51:11Z</time></trkpt><trkpt lat="47.68532596605787" lon="1.0082727213908298"><ele>118.0</ele><time>2026-04-13T17:51:12Z</time></trkpt><trkpt lat="47.68527513834251" lon="1.0081230102154475"><ele>118.0</ele><time>2026-04-13T17:51:13Z</time></trkpt><trkpt lat="47.68526792632064" lon="1.007935639917013"><ele>117.66666666666667</ele><time>2026-04-13T17:51:14Z</time></trkpt><trkpt lat="47.68532384553648" lon="1.0077224474625137"><ele>117.33333333333334</ele><time>2026-04-13T17:51:15Z</time></trkpt><trkpt lat="47.68536733337192" lon="1.0074742914552046"><ele>117.0</ele><time>2026-04-13T17:51:16Z</time></trkpt><trkpt lat="47.68544567077971" lon="1.0072210790589977"><ele>116.66666666666666</ele><time>2026-04-13T17:51:17Z</time></trkpt><trkpt lat="47.685550834960935" lon="1.0069581365173652"><ele>116.33333333333333</ele><time>2026-04-13T17:51:18Z</time></trkpt><trkpt lat="47.685639389839956" lon="1.0067218083611755"><ele>116.0</ele><time>2026-04-13T17:51:19Z</time></trkpt><trkpt lat="47.685804687837624" lon="1.0065788940628482"><ele>116.0</ele><time>2026-04-13T17:51:20Z</time></trkpt><trkpt lat="47.68591040119313" lon="1.0064078676309827"><ele>116.0</ele><time>2026-04-13T17:51:21Z</time></trkpt><trkpt lat="47.68600541176472" lon="1.0062611197389457"><ele>116.0</ele><time>2026-04-13T17:51:22Z</time></trkpt><trkpt lat="47.68609022056442" lon="1.0061312500204072"><ele>116.0</ele><time>2026-04-13T17:51:23Z</time></trkpt><trkpt lat="47.68617079421663" lon="1.0060095521005827"><ele>116.5</ele><time>2026-04-13T17:51:24Z</time></trkpt><trkpt lat="47.68623425639" lon="1.0058923123534822"><ele>117.0</ele><time>2026-04-13T17:51:25Z</time></trkpt><trkpt lat="47.686276549264015" lon="1.0057903646962483"><ele>117.5</ele><time>2026-04-13T17:51:26Z</time></trkpt><trkpt lat="47.68633728670136" lon="1.0056669997150047"><ele>118.0</ele><time>2026-04-13T17:51:28Z</time></trkpt><trkpt lat="47.68615613117926" lon="1.005472519864101"><ele>117.66666666666667</ele><time>2026-04-13T17:51:31Z</time></trkpt><trkpt lat="47.68601391436414" lon="1.0053811910729566"><ele>117.33333333333334</ele><time>2026-04-13T17:51:32Z</time></trkpt><trkpt lat="47.68585325534446" lon="1.0053148915386467"><ele>117.0</ele><time>2026-04-13T17:51:33Z</time></trkpt><trkpt lat="47.685677573402025" lon="1.0052036700801121"><ele>117.0</ele><time>2026-04-13T17:51:34Z</time></trkpt><trkpt lat="47.68549914930816" lon="1.0050659956148686"><ele>117.0</ele><time>2026-04-13T17:51:35Z</time></trkpt><trkpt lat="47.68531354072426" lon="1.0048717455053053"><ele>117.0</ele><time>2026-04-13T17:51:36Z</time></trkpt><trkpt lat="47.68510925858056" lon="1.0046892836394752"><ele>116.5</ele><time>2026-04-13T17:51:37Z</time></trkpt><trkpt lat="47.68488964520912" lon="1.0045000544429052"><ele>116.0</ele><time>2026-04-13T17:51:38Z</time></trkpt><trkpt lat="47.68465865587501" lon="1.0043286653898928"><ele>116.0</ele><time>2026-04-13T17:51:39Z</time></trkpt><trkpt lat="47.68444229545921" lon="1.0041415109937573"><ele>116.0</ele><time>2026-04-13T17:51:40Z</time></trkpt><trkpt lat="47.68422314969469" lon="1.0039500212421648"><ele>116.0</ele><time>2026-04-13T17:51:41Z</time></trkpt><trkpt lat="47.68401043511351" lon="1.0037589958792423"><ele>116.0</ele><time>2026-04-13T17:51:42Z</time></trkpt><trkpt lat="47.68381553596649" lon="1.0035625046186059"><ele>116.5</ele><time>2026-04-13T17:51:43Z</time></trkpt><trkpt lat="47.68359280314844" lon="1.003391424738816"><ele>117.0</ele><time>2026-04-13T17:51:43.999Z</time></trkpt><trkpt lat="47.683366521942744" lon="1.0031891081119602"><ele>117.0</ele><time>2026-04-13T17:51:44.999Z</time></trkpt><trkpt lat="47.68314419311619" lon="1.0029889213079053"><ele>117.0</ele><time>2026-04-13T17:51:45.999Z</time></trkpt><trkpt lat="47.68292629412629" lon="1.0027969605961797"><ele>117.0</ele><time>2026-04-13T17:51:46.999Z</time></trkpt><trkpt lat="47.682704998820235" lon="1.0026123057872978"><ele>117.0</ele><time>2026-04-13T17:51:47.999Z</time></trkpt><trkpt lat="47.682486071987825" lon="1.00242389784023"><ele>116.0</ele><time>2026-04-13T17:51:48.999Z</time></trkpt><trkpt lat="47.68227180315841" lon="1.0022468924657377"><ele>115.0</ele><time>2026-04-13T17:51:49.999Z</time></trkpt><trkpt lat="47.682089475043114" lon="1.002064522173026"><ele>116.5</ele><time>2026-04-13T17:51:50.999Z</time></trkpt><trkpt lat="47.68189960290693" lon="1.0018984217300047"><ele>118.0</ele><time>2026-04-13T17:51:51.999Z</time></trkpt><trkpt lat="47.68167950309389" lon="1.0017314254315843"><ele>118.5</ele><time>2026-04-13T17:51:52.999Z</time></trkpt><trkpt lat="47.68146628750692" lon="1.0015335522582123"><ele>119.0</ele><time>2026-04-13T17:51:53.999Z</time></trkpt><trkpt lat="47.681251113139794" lon="1.0013413750573887"><ele>119.0</ele><time>2026-04-13T17:51:54.999Z</time></trkpt><trkpt lat="47.6810282857876" lon="1.0011453785227729"><ele>119.0</ele><time>2026-04-13T17:51:55.999Z</time></trkpt><trkpt lat="47.6808085100241" lon="1.0009469653098546"><ele>119.5</ele><time>2026-04-13T17:51:56.999Z</time></trkpt><trkpt lat="47.68059249932079" lon="1.0007694927608266"><ele>120.0</ele><time>2026-04-13T17:51:57.999Z</time></trkpt><trkpt lat="47.68038189673334" lon="1.0005699706741433"><ele>120.0</ele><time>2026-04-13T17:51:58.999Z</time></trkpt><trkpt lat="47.68017367641213" lon="1.0003630710542"><ele>120.0</ele><time>2026-04-13T17:51:59.999Z</time></trkpt><trkpt lat="47.67994557856893" lon="1.0001985451871303"><ele>120.0</ele><time>2026-04-13T17:52:00.999Z</time></trkpt><trkpt lat="47.679721548149196" lon="1.000012280044649"><ele>120.0</ele><time>2026-04-13T17:52:01.999Z</time></trkpt><trkpt lat="47.679539038877124" lon="0.9998493393258938"><ele>119.66666666666666</ele><time>2026-04-13T17:52:02.999Z</time></trkpt><trkpt lat="47.679368907563386" lon="0.9997045823120163"><ele>119.33333333333333</ele><time>2026-04-13T17:52:03.999Z</time></trkpt><trkpt lat="47.67918292499102" lon="0.9995595437835818"><ele>119.0</ele><time>2026-04-13T17:52:04.999Z</time></trkpt><trkpt lat="47.678988981311065" lon="0.9993703743091435"><ele>119.0</ele><time>2026-04-13T17:52:05.999Z</time></trkpt><trkpt lat="47.67877433707753" lon="0.9992095878648657"><ele>119.0</ele><time>2026-04-13T17:52:06.999Z</time></trkpt><trkpt lat="47.67854913315819" lon="0.9990128773980412"><ele>119.0</ele><time>2026-04-13T17:52:07.999Z</time></trkpt><trkpt lat="47.678313393332544" lon="0.9988016528736905"><ele>119.0</ele><time>2026-04-13T17:52:08.999Z</time></trkpt><trkpt lat="47.67809026936104" lon="0.9985968126871907"><ele>119.0</ele><time>2026-04-13T17:52:09.999Z</time></trkpt><trkpt lat="47.67787213225596" lon="0.9983904574182683"><ele>119.0</ele><time>2026-04-13T17:52:10.999Z</time></trkpt><trkpt lat="47.67765149861645" lon="0.9981850563007738"><ele>119.5</ele><time>2026-04-13T17:52:11.999Z</time></trkpt><trkpt lat="47.677434770719834" lon="0.9980008631026074"><ele>120.0</ele><time>2026-04-13T17:52:12.999Z</time></trkpt><trkpt lat="47.67723188842066" lon="0.9978242293610872"><ele>120.0</ele><time>2026-04-13T17:52:13.999Z</time></trkpt><trkpt lat="47.6770469073959" lon="0.9976587968579929"><ele>120.0</ele><time>2026-04-13T17:52:14.999Z</time></trkpt><trkpt lat="47.67686124356891" lon="0.9974877724079632"><ele>120.0</ele><time>2026-04-13T17:52:15.999Z</time></trkpt><trkpt lat="47.67666267864613" lon="0.9973143700588607"><ele>121.5</ele><time>2026-04-13T17:52:16.999Z</time></trkpt><trkpt lat="47.676449285927795" lon="0.9971211763706267"><ele>123.0</ele><time>2026-04-13T17:52:17.999Z</time></trkpt><trkpt lat="47.676235364837936" lon="0.9969345031307658"><ele>123.0</ele><time>2026-04-13T17:52:18.999Z</time></trkpt><trkpt lat="47.676055569476716" lon="0.9967780853183643"><ele>123.0</ele><time>2026-04-13T17:52:20Z</time></trkpt><trkpt lat="47.67590319024028" lon="0.9966262937097702"><ele>123.0</ele><time>2026-04-13T17:52:21Z</time></trkpt><trkpt lat="47.675720587733935" lon="0.9964651197688557"><ele>122.5</ele><time>2026-04-13T17:52:22Z</time></trkpt><trkpt lat="47.67552688817058" lon="0.9962941509033845"><ele>122.0</ele><time>2026-04-13T17:52:23Z</time></trkpt><trkpt lat="47.67530582617217" lon="0.996127935396515"><ele>122.0</ele><time>2026-04-13T17:52:24Z</time></trkpt><trkpt lat="47.67508172434095" lon="0.9959343769644444"><ele>122.0</ele><time>2026-04-13T17:52:25Z</time></trkpt><trkpt lat="47.67485063116165" lon="0.9957451452250334"><ele>121.5</ele><time>2026-04-13T17:52:26Z</time></trkpt><trkpt lat="47.67463664324549" lon="0.9955719152025232"><ele>121.0</ele><time>2026-04-13T17:52:27Z</time></trkpt><trkpt lat="47.67441269818601" lon="0.9953791874050241"><ele>120.5</ele><time>2026-04-13T17:52:28Z</time></trkpt><trkpt lat="47.67419787714049" lon="0.995188134931992"><ele>120.0</ele><time>2026-04-13T17:52:29Z</time></trkpt><trkpt lat="47.67400438530102" lon="0.9950263770877716"><ele>119.33333333333334</ele><time>2026-04-13T17:52:30Z</time></trkpt><trkpt lat="47.67385743024019" lon="0.9948689400075004"><ele>118.66666666666667</ele><time>2026-04-13T17:52:31Z</time></trkpt><trkpt lat="47.673723472758724" lon="0.9947718889444739"><ele>118.0</ele><time>2026-04-13T17:52:32Z</time></trkpt><trkpt lat="47.67361110072346" lon="0.9946670969496121"><ele>118.00000000000001</ele><time>2026-04-13T17:52:33Z</time></trkpt><trkpt lat="47.67352605020163" lon="0.9945807782931908"><ele>118.0</ele><time>2026-04-13T17:52:34Z</time></trkpt><trkpt lat="47.67346701030706" lon="0.9944965395088421"><ele>118.0</ele><time>2026-04-13T17:52:35Z</time></trkpt><trkpt lat="47.673408067475684" lon="0.9944361708734959"><ele>118.0</ele><time>2026-04-13T17:52:36Z</time></trkpt><trkpt lat="47.67334685811092" lon="0.9943622953082154"><ele>118.00000000000001</ele><time>2026-04-13T17:52:38Z</time></trkpt><trkpt lat="47.67328490899954" lon="0.9943371469884311"><ele>118.0</ele><time>2026-04-13T17:53:37Z</time></trkpt><trkpt lat="47.673179783636165" lon="0.9944357438818012"><ele>118.0</ele><time>2026-04-13T17:53:39Z</time></trkpt><trkpt lat="47.67314373525772" lon="0.9945375216102867"><ele>118.00000000000001</ele><time>2026-04-13T17:53:39.999Z</time></trkpt><trkpt lat="47.67309353780914" lon="0.994651688374035"><ele>118.00000000000001</ele><time>2026-04-13T17:53:40.999Z</time></trkpt><trkpt lat="47.67304270344842" lon="0.9947711527714946"><ele>118.0</ele><time>2026-04-13T17:53:41.999Z</time></trkpt><trkpt lat="47.67297903293319" lon="0.99492904353551"><ele>118.0</ele><time>2026-04-13T17:53:43.999Z</time></trkpt><trkpt lat="47.672918866349725" lon="0.9950672022416642"><ele>118.2</ele><time>2026-04-13T17:53:44.999Z</time></trkpt><trkpt lat="47.67287236673382" lon="0.9951827737451404"><ele>118.4</ele><time>2026-04-13T17:53:45.999Z</time></trkpt><trkpt lat="47.67277547323818" lon="0.9951225253022838"><ele>118.60000000000001</ele><time>2026-04-13T17:53:48.999Z</time></trkpt><trkpt lat="47.67274819962286" lon="0.9950290161240454"><ele>118.80000000000001</ele><time>2026-04-13T17:53:49.999Z</time></trkpt><trkpt lat="47.67269773128806" lon="0.9948762817260481"><ele>119.0</ele><time>2026-04-13T17:53:50.999Z</time></trkpt><trkpt lat="47.672646937307" lon="0.9946613687562194"><ele>118.33333333333333</ele><time>2026-04-13T17:53:51.999Z</time></trkpt><trkpt lat="47.672588104820626" lon="0.9944196265331898"><ele>117.66666666666666</ele><time>2026-04-13T17:53:52.999Z</time></trkpt><trkpt lat="47.67252522453898" lon="0.9941482075505239"><ele>117.0</ele><time>2026-04-13T17:53:53.999Z</time></trkpt><trkpt lat="47.672440867588314" lon="0.9938944147688434"><ele>117.0</ele><time>2026-04-13T17:53:54.999Z</time></trkpt><trkpt lat="47.67232423697631" lon="0.9936945846437197"><ele>117.0</ele><time>2026-04-13T17:53:55.999Z</time></trkpt><trkpt lat="47.67215852834867" lon="0.9935030433989305"><ele>117.0</ele><time>2026-04-13T17:53:56.999Z</time></trkpt><trkpt lat="47.671962494779805" lon="0.9932985657627542"><ele>116.33333333333334</ele><time>2026-04-13T17:53:57.999Z</time></trkpt><trkpt lat="47.67179457260637" lon="0.9930828947856302"><ele>115.66666666666667</ele><time>2026-04-13T17:53:58.999Z</time></trkpt><trkpt lat="47.671669691481846" lon="0.9928799293026397"><ele>115.0</ele><time>2026-04-13T17:53:59.999Z</time></trkpt><trkpt lat="47.67154036496026" lon="0.9927390772556618"><ele>115.0</ele><time>2026-04-13T17:54:00.999Z</time></trkpt><trkpt lat="47.6714194860735" lon="0.992612543709261"><ele>115.0</ele><time>2026-04-13T17:54:01.999Z</time></trkpt><trkpt lat="47.67128012844253" lon="0.992549542711744"><ele>115.0</ele><time>2026-04-13T17:54:02.999Z</time></trkpt><trkpt lat="47.671171361224495" lon="0.9925350517282598"><ele>115.0</ele><time>2026-04-13T17:54:03.999Z</time></trkpt><trkpt lat="47.6710642274683" lon="0.9924983150644703"><ele>115.33333333333334</ele><time>2026-04-13T17:54:04.999Z</time></trkpt><trkpt lat="47.67094523879226" lon="0.9924514347150598"><ele>115.66666666666666</ele><time>2026-04-13T17:54:05.999Z</time></trkpt><trkpt lat="47.67082417049889" lon="0.9923948618115763"><ele>116.0</ele><time>2026-04-13T17:54:06.999Z</time></trkpt><trkpt lat="47.67077532746586" lon="0.9914371483603028"><ele>116.33333333333333</ele><time>2026-04-13T17:54:07.999Z</time></trkpt><trkpt lat="47.6706615494275" lon="0.9912009415843741"><ele>116.66666666666666</ele><time>2026-04-13T17:54:08.999Z</time></trkpt><trkpt lat="47.670544101083465" lon="0.9909607985416704"><ele>117.0</ele><time>2026-04-13T17:54:09.999Z</time></trkpt><trkpt lat="47.67045284065096" lon="0.9907492040815414"><ele>117.0</ele><time>2026-04-13T17:54:10.999Z</time></trkpt><trkpt lat="47.67037284759936" lon="0.9905644949643847"><ele>117.0</ele><time>2026-04-13T17:54:11.999Z</time></trkpt><trkpt lat="47.670281395156586" lon="0.9903733864751912"><ele>117.0</ele><time>2026-04-13T17:54:12.999Z</time></trkpt><trkpt lat="47.670174788984916" lon="0.9901533739660145"><ele>117.0</ele><time>2026-04-13T17:54:13.999Z</time></trkpt><trkpt lat="47.67007244084261" lon="0.9899396527942991"><ele>117.0</ele><time>2026-04-13T17:54:14.999Z</time></trkpt><trkpt lat="47.66999029717456" lon="0.9897599234463977"><ele>117.0</ele><time>2026-04-13T17:54:15.999Z</time></trkpt><trkpt lat="47.669913170415924" lon="0.9895845749941139"><ele>117.0</ele><time>2026-04-13T17:54:16.999Z</time></trkpt><trkpt lat="47.66984737601557" lon="0.989421752728968"><ele>117.0</ele><time>2026-04-13T17:54:17.999Z</time></trkpt><trkpt lat="47.66978796906398" lon="0.9892636155351145"><ele>117.0</ele><time>2026-04-13T17:54:18.999Z</time></trkpt><trkpt lat="47.66971621886447" lon="0.9890924850955651"><ele>117.0</ele><time>2026-04-13T17:54:19.999Z</time></trkpt><trkpt lat="47.669633997301176" lon="0.9889126578325571"><ele>117.0</ele><time>2026-04-13T17:54:20.999Z</time></trkpt><trkpt lat="47.66954236584708" lon="0.9887286662797079"><ele>117.0</ele><time>2026-04-13T17:54:21.999Z</time></trkpt><trkpt lat="47.66945758406912" lon="0.988536411300925"><ele>117.0</ele><time>2026-04-13T17:54:22.999Z</time></trkpt><trkpt lat="47.66937038973686" lon="0.9883280359529855"><ele>117.75</ele><time>2026-04-13T17:54:23.999Z</time></trkpt><trkpt lat="47.669289712454045" lon="0.9881507407241384"><ele>118.5</ele><time>2026-04-13T17:54:24.999Z</time></trkpt><trkpt lat="47.66922393921973" lon="0.9880026907015496"><ele>119.25</ele><time>2026-04-13T17:54:26Z</time></trkpt><trkpt lat="47.669152258522" lon="0.9878504119188529"><ele>120.0</ele><time>2026-04-13T17:54:27Z</time></trkpt><trkpt lat="47.66907391663517" lon="0.9876820232114809"><ele>119.5</ele><time>2026-04-13T17:54:28Z</time></trkpt><trkpt lat="47.66898266651893" lon="0.9874944324824617"><ele>119.0</ele><time>2026-04-13T17:54:29Z</time></trkpt><trkpt lat="47.66890448796461" lon="0.9873221825336375"><ele>118.5</ele><time>2026-04-13T17:54:30Z</time></trkpt><trkpt lat="47.668837662649835" lon="0.9871813006627943"><ele>118.0</ele><time>2026-04-13T17:54:31Z</time></trkpt><trkpt lat="47.66876613219243" lon="0.9870205374813674"><ele>118.0</ele><time>2026-04-13T17:54:32Z</time></trkpt><trkpt lat="47.66868826710782" lon="0.9868482559440462"><ele>118.0</ele><time>2026-04-13T17:54:33Z</time></trkpt><trkpt lat="47.668611261372334" lon="0.9866658707860707"><ele>118.0</ele><time>2026-04-13T17:54:34Z</time></trkpt><trkpt lat="47.66850799975138" lon="0.986466290493568"><ele>117.33333333333334</ele><time>2026-04-13T17:54:35Z</time></trkpt><trkpt lat="47.66841359535332" lon="0.9862564759292679"><ele>116.66666666666666</ele><time>2026-04-13T17:54:36Z</time></trkpt><trkpt lat="47.668321680319" lon="0.9860085447869471"><ele>116.0</ele><time>2026-04-13T17:54:37Z</time></trkpt><trkpt lat="47.668222621877504" lon="0.9857448164328387"><ele>116.0</ele><time>2026-04-13T17:54:38Z</time></trkpt><trkpt lat="47.668092614169076" lon="0.9854769984804868"><ele>116.0</ele><time>2026-04-13T17:54:39Z</time></trkpt><trkpt lat="47.66798412382431" lon="0.9851890355597456"><ele>116.0</ele><time>2026-04-13T17:54:40Z</time></trkpt><trkpt lat="47.66785392121093" lon="0.9849297576139361"><ele>116.0</ele><time>2026-04-13T17:54:41Z</time></trkpt><trkpt lat="47.66775132580096" lon="0.984695755788032"><ele>116.0</ele><time>2026-04-13T17:54:42Z</time></trkpt><trkpt lat="47.66765317666431" lon="0.984485902702301"><ele>116.0</ele><time>2026-04-13T17:54:43Z</time></trkpt><trkpt lat="47.667547972146295" lon="0.9842501858574444"><ele>116.33333333333333</ele><time>2026-04-13T17:54:44Z</time></trkpt><trkpt lat="47.66744775696367" lon="0.983989267901798"><ele>116.66666666666666</ele><time>2026-04-13T17:54:45Z</time></trkpt><trkpt lat="47.66732424132516" lon="0.9837167338994849"><ele>117.0</ele><time>2026-04-13T17:54:46Z</time></trkpt><trkpt lat="47.667197645743514" lon="0.9834324518960406"><ele>117.5</ele><time>2026-04-13T17:54:47Z</time></trkpt><trkpt lat="47.6670756664732" lon="0.9831160306507284"><ele>118.0</ele><time>2026-04-13T17:54:48Z</time></trkpt><trkpt lat="47.66694291431486" lon="0.9828147699204658"><ele>118.33333333333334</ele><time>2026-04-13T17:54:49Z</time></trkpt><trkpt lat="47.666819166537316" lon="0.9825231828281163"><ele>118.66666666666666</ele><time>2026-04-13T17:54:50Z</time></trkpt><trkpt lat="47.666716368564046" lon="0.9822836141968345"><ele>119.0</ele><time>2026-04-13T17:54:51Z</time></trkpt><trkpt lat="47.666607780344606" lon="0.9820721551974718"><ele>119.0</ele><time>2026-04-13T17:54:52Z</time></trkpt><trkpt lat="47.666493581059825" lon="0.9818232331002125"><ele>119.0</ele><time>2026-04-13T17:54:53Z</time></trkpt><trkpt lat="47.66636987751039" lon="0.981550751447546"><ele>119.0</ele><time>2026-04-13T17:54:54Z</time></trkpt><trkpt lat="47.666266884345156" lon="0.9813139955401861"><ele>119.33333333333333</ele><time>2026-04-13T17:54:55Z</time></trkpt><trkpt lat="47.666168268170416" lon="0.9810717405628372"><ele>119.66666666666666</ele><time>2026-04-13T17:54:56Z</time></trkpt><trkpt lat="47.66603929441839" lon="0.9807902386531256"><ele>120.0</ele><time>2026-04-13T17:54:57Z</time></trkpt><trkpt lat="47.665920526634935" lon="0.9805178636868986"><ele>119.33333333333334</ele><time>2026-04-13T17:54:58Z</time></trkpt><trkpt lat="47.66581588330372" lon="0.9802780521501568"><ele>118.66666666666667</ele><time>2026-04-13T17:54:59Z</time></trkpt><trkpt lat="47.6657315255922" lon="0.9800766074159211"><ele>118.0</ele><time>2026-04-13T17:55:00Z</time></trkpt><trkpt lat="47.6656640599656" lon="0.9798945579271597"><ele>118.0</ele><time>2026-04-13T17:55:01Z</time></trkpt><trkpt lat="47.665598264630006" lon="0.979721937680491"><ele>118.0</ele><time>2026-04-13T17:55:02Z</time></trkpt><trkpt lat="47.66551858363161" lon="0.9795428105136497"><ele>118.0</ele><time>2026-04-13T17:55:03Z</time></trkpt><trkpt lat="47.66542554257403" lon="0.9793505787031457"><ele>118.0</ele><time>2026-04-13T17:55:04Z</time></trkpt><trkpt lat="47.66532066820324" lon="0.9791304569115572"><ele>117.0</ele><time>2026-04-13T17:55:05Z</time></trkpt><trkpt lat="47.6652069588366" lon="0.9788727289691943"><ele>116.0</ele><time>2026-04-13T17:55:06Z</time></trkpt><trkpt lat="47.665091615936284" lon="0.9785975347950788"><ele>115.0</ele><time>2026-04-13T17:55:07Z</time></trkpt><trkpt lat="47.66496731949436" lon="0.9782941306318845"><ele>115.0</ele><time>2026-04-13T17:55:08Z</time></trkpt><trkpt lat="47.664853156044295" lon="0.9780226717518377"><ele>115.0</ele><time>2026-04-13T17:55:09Z</time></trkpt><trkpt lat="47.6647475344827" lon="0.9777904875539932"><ele>115.0</ele><time>2026-04-13T17:55:10Z</time></trkpt><trkpt lat="47.664638468199115" lon="0.9775540378281572"><ele>115.5</ele><time>2026-04-13T17:55:11Z</time></trkpt><trkpt lat="47.6645244076784" lon="0.9772761363450284"><ele>116.0</ele><time>2026-04-13T17:55:12Z</time></trkpt><trkpt lat="47.66440105750647" lon="0.9769838984222159"><ele>116.0</ele><time>2026-04-13T17:55:13Z</time></trkpt><trkpt lat="47.664275437099334" lon="0.9766575534621807"><ele>116.0</ele><time>2026-04-13T17:55:14Z</time></trkpt><trkpt lat="47.66413912527683" lon="0.976328908859691"><ele>116.0</ele><time>2026-04-13T17:55:15Z</time></trkpt><trkpt lat="47.66399087654409" lon="0.9760154537959327"><ele>116.0</ele><time>2026-04-13T17:55:16Z</time></trkpt><trkpt lat="47.66385881767538" lon="0.9757212817382807"><ele>116.66666666666666</ele><time>2026-04-13T17:55:17Z</time></trkpt><trkpt lat="47.663746591081086" lon="0.9754589581613244"><ele>117.33333333333334</ele><time>2026-04-13T17:55:18Z</time></trkpt><trkpt lat="47.6636592856449" lon="0.975237088902116"><ele>118.0</ele><time>2026-04-13T17:55:19Z</time></trkpt><trkpt lat="47.66358242699912" lon="0.9750663664234992"><ele>118.4</ele><time>2026-04-13T17:55:20Z</time></trkpt><trkpt lat="47.6635175106667" lon="0.9749258081760453"><ele>118.80000000000001</ele><time>2026-04-13T17:55:21Z</time></trkpt><trkpt lat="47.6634677038269" lon="0.9748091634733106"><ele>119.2</ele><time>2026-04-13T17:55:22Z</time></trkpt><trkpt lat="47.66342705440888" lon="0.9747078454649458"><ele>119.6</ele><time>2026-04-13T17:55:23Z</time></trkpt><trkpt lat="47.66338842784949" lon="0.9746279920857454"><ele>120.0</ele><time>2026-04-13T17:55:24Z</time></trkpt><trkpt lat="47.66344006241225" lon="0.9744807315048277"><ele>120.0</ele><time>2026-04-13T17:55:27Z</time></trkpt><trkpt lat="47.663513853988" lon="0.9744240834211416"><ele>120.0</ele><time>2026-04-13T17:55:28Z</time></trkpt><trkpt lat="47.66360137030241" lon="0.9743395313084279"><ele>120.0</ele><time>2026-04-13T17:55:29Z</time></trkpt><trkpt lat="47.66371801051758" lon="0.9742250612118203"><ele>120.0</ele><time>2026-04-13T17:55:30Z</time></trkpt><trkpt lat="47.66386549883687" lon="0.9740981056043336"><ele>119.66666666666666</ele><time>2026-04-13T17:55:31Z</time></trkpt><trkpt lat="47.664023187655275" lon="0.973952150773737"><ele>119.33333333333333</ele><time>2026-04-13T17:55:32Z</time></trkpt><trkpt lat="47.66419425766786" lon="0.9737952275244484"><ele>119.0</ele><time>2026-04-13T17:55:33Z</time></trkpt><trkpt lat="47.664392559253656" lon="0.9736324324966328"><ele>119.0</ele><time>2026-04-13T17:55:34Z</time></trkpt><trkpt lat="47.66460360844846" lon="0.973458217877564"><ele>119.0</ele><time>2026-04-13T17:55:35Z</time></trkpt><trkpt lat="47.66481798846794" lon="0.9732771723884366"><ele>119.0</ele><time>2026-04-13T17:55:36Z</time></trkpt><trkpt lat="47.66504103286175" lon="0.9730929923774224"><ele>119.0</ele><time>2026-04-13T17:55:37Z</time></trkpt><trkpt lat="47.665269118441415" lon="0.9729066361216805"><ele>120.0</ele><time>2026-04-13T17:55:38Z</time></trkpt><trkpt lat="47.665488147554086" lon="0.9727198696442813"><ele>121.0</ele><time>2026-04-13T17:55:39Z</time></trkpt><trkpt lat="47.66568260732857" lon="0.9725591643546281"><ele>121.0</ele><time>2026-04-13T17:55:40Z</time></trkpt><trkpt lat="47.66585596034238" lon="0.9724315289749415"><ele>121.0</ele><time>2026-04-13T17:55:41Z</time></trkpt><trkpt lat="47.66600653360208" lon="0.9723300176562788"><ele>121.0</ele><time>2026-04-13T17:55:42Z</time></trkpt><trkpt lat="47.66611601656928" lon="0.9722656344869607"><ele>121.0</ele><time>2026-04-13T17:55:43Z</time></trkpt><trkpt lat="47.666208570063986" lon="0.9722174172446243"><ele>121.0</ele><time>2026-04-13T17:55:44Z</time></trkpt><trkpt lat="47.666277787439476" lon="0.9721812438718377"><ele>121.0</ele><time>2026-04-13T17:55:45Z</time></trkpt><trkpt lat="47.66635842670922" lon="0.9721423330620897"><ele>121.0</ele><time>2026-04-13T17:55:46.999Z</time></trkpt><trkpt lat="47.66681873439114" lon="0.9718998371359074"><ele>121.0</ele><time>2026-04-13T17:55:47.999Z</time></trkpt><trkpt lat="47.666819776848826" lon="0.97179784579848"><ele>121.0</ele><time>2026-04-13T17:55:48.999Z</time></trkpt><trkpt lat="47.666826904503104" lon="0.9716014384979759"><ele>121.0</ele><time>2026-04-13T17:55:49.999Z</time></trkpt><trkpt lat="47.666802735670615" lon="0.9714421112213804"><ele>121.0</ele><time>2026-04-13T17:55:50.999Z</time></trkpt><trkpt lat="47.66613668523471" lon="0.9710301819797396"><ele>121.0</ele><time>2026-04-13T17:55:53.999Z</time></trkpt><trkpt lat="47.66611459827558" lon="0.9708448509371355"><ele>121.0</ele><time>2026-04-13T17:55:54.999Z</time></trkpt><trkpt lat="47.66609303761186" lon="0.9706474839136209"><ele>121.0</ele><time>2026-04-13T17:55:55.999Z</time></trkpt><trkpt lat="47.66606220908453" lon="0.9704813898366214"><ele>121.0</ele><time>2026-04-13T17:55:56.999Z</time></trkpt><trkpt lat="47.66603804119705" lon="0.9702928271620109"><ele>121.0</ele><time>2026-04-13T17:55:57.999Z</time></trkpt><trkpt lat="47.66601924575939" lon="0.970090672764623"><ele>121.0</ele><time>2026-04-13T17:55:58.999Z</time></trkpt><trkpt lat="47.66598734742047" lon="0.9698202472132185"><ele>121.0</ele><time>2026-04-13T17:55:59.999Z</time></trkpt><trkpt lat="47.665929197240224" lon="0.969532766602311"><ele>121.0</ele><time>2026-04-13T17:56:00.999Z</time></trkpt><trkpt lat="47.665869114277314" lon="0.9692294440937996"><ele>121.0</ele><time>2026-04-13T17:56:01.999Z</time></trkpt><trkpt lat="47.66579575404419" lon="0.968931386014858"><ele>121.0</ele><time>2026-04-13T17:56:02.999Z</time></trkpt><trkpt lat="47.6657135873694" lon="0.9686007851583626"><ele>121.0</ele><time>2026-04-13T17:56:03.999Z</time></trkpt><trkpt lat="47.665636148070426" lon="0.968310288015385"><ele>121.0</ele><time>2026-04-13T17:56:04.999Z</time></trkpt><trkpt lat="47.665546844793845" lon="0.9680835446146274"><ele>121.0</ele><time>2026-04-13T17:56:05.999Z</time></trkpt><trkpt lat="47.66542623182094" lon="0.9678423078312663"><ele>121.0</ele><time>2026-04-13T17:56:06.999Z</time></trkpt><trkpt lat="47.66531250133736" lon="0.96756849266538"><ele>121.0</ele><time>2026-04-13T17:56:07.999Z</time></trkpt><trkpt lat="47.66521501649247" lon="0.967296476132857"><ele>121.0</ele><time>2026-04-13T17:56:08.999Z</time></trkpt><trkpt lat="47.665129039854406" lon="0.9670234000190356"><ele>121.33333333333334</ele><time>2026-04-13T17:56:09.999Z</time></trkpt><trkpt lat="47.66502642206725" lon="0.9667285250114529"><ele>121.66666666666666</ele><time>2026-04-13T17:56:10.999Z</time></trkpt><trkpt lat="47.66491008624155" lon="0.9664537422413202"><ele>122.0</ele><time>2026-04-13T17:56:11.999Z</time></trkpt><trkpt lat="47.66477141756168" lon="0.9661528623250447"><ele>122.0</ele><time>2026-04-13T17:56:12.999Z</time></trkpt><trkpt lat="47.66462988332364" lon="0.9658611147140876"><ele>122.0</ele><time>2026-04-13T17:56:13.999Z</time></trkpt><trkpt lat="47.66448541812211" lon="0.9655759385848365"><ele>122.0</ele><time>2026-04-13T17:56:14.999Z</time></trkpt><trkpt lat="47.66435791023692" lon="0.9653299161808757"><ele>122.0</ele><time>2026-04-13T17:56:15.999Z</time></trkpt><trkpt lat="47.6642425781492" lon="0.9651267667984558"><ele>122.0</ele><time>2026-04-13T17:56:16.999Z</time></trkpt><trkpt lat="47.66412432522547" lon="0.9649464965434004"><ele>122.0</ele><time>2026-04-13T17:56:17.999Z</time></trkpt><trkpt lat="47.664023463252576" lon="0.964789331397283"><ele>122.0</ele><time>2026-04-13T17:56:18.999Z</time></trkpt><trkpt lat="47.66405389253656" lon="0.9644091689968314"><ele>122.0</ele><time>2026-04-13T17:56:19.999Z</time></trkpt><trkpt lat="47.66396982647661" lon="0.9643217037572438"><ele>122.0</ele><time>2026-04-13T17:56:20.999Z</time></trkpt><trkpt lat="47.66389845233068" lon="0.9642474436235862"><ele>121.99999999999999</ele><time>2026-04-13T17:56:21.999Z</time></trkpt><trkpt lat="47.663846839263" lon="0.9641937436002127"><ele>121.99999999999999</ele><time>2026-04-13T17:56:22.999Z</time></trkpt><trkpt lat="47.663787963263005" lon="0.964132486974039"><ele>122.0</ele><time>2026-04-13T17:56:24.999Z</time></trkpt><trkpt lat="47.663689777951234" lon="0.9639905679620366"><ele>122.0</ele><time>2026-04-13T17:56:26.999Z</time></trkpt><trkpt lat="47.66363777955555" lon="0.9638168551702487"><ele>122.33333333333333</ele><time>2026-04-13T17:56:27.999Z</time></trkpt><trkpt lat="47.66352292381681" lon="0.9637056982427094"><ele>122.66666666666666</ele><time>2026-04-13T17:56:28.999Z</time></trkpt><trkpt lat="47.66339926550967" lon="0.9635767825580388"><ele>123.0</ele><time>2026-04-13T17:56:29.999Z</time></trkpt><trkpt lat="47.66325904244879" lon="0.9634320081639556"><ele>123.0</ele><time>2026-04-13T17:56:30.999Z</time></trkpt><trkpt lat="47.6631359045052" lon="0.9632907487590551"><ele>123.0</ele><time>2026-04-13T17:56:32Z</time></trkpt><trkpt lat="47.663055427171024" lon="0.9631876917995241"><ele>123.0</ele><time>2026-04-13T17:56:33Z</time></trkpt><trkpt lat="47.66297689875575" lon="0.9630846022375185"><ele>123.0</ele><time>2026-04-13T17:56:34Z</time></trkpt><trkpt lat="47.662880552359105" lon="0.9630074274531357"><ele>122.75</ele><time>2026-04-13T17:56:35Z</time></trkpt><trkpt lat="47.662778558687016" lon="0.9629308890094629"><ele>122.5</ele><time>2026-04-13T17:56:36Z</time></trkpt><trkpt lat="47.66266249850628" lon="0.9628517568886034"><ele>122.25</ele><time>2026-04-13T17:56:37Z</time></trkpt><trkpt lat="47.66254361845291" lon="0.9627510996714069"><ele>122.0</ele><time>2026-04-13T17:56:38Z</time></trkpt><trkpt lat="47.6624418272261" lon="0.9626685911782671"><ele>122.0</ele><time>2026-04-13T17:56:39Z</time></trkpt><trkpt lat="47.66232695229942" lon="0.962576913941967"><ele>122.0</ele><time>2026-04-13T17:56:40Z</time></trkpt><trkpt lat="47.66216630788286" lon="0.962452409196486"><ele>122.0</ele><time>2026-04-13T17:56:41Z</time></trkpt><trkpt lat="47.662020515287274" lon="0.9623433804671939"><ele>121.0</ele><time>2026-04-13T17:56:42Z</time></trkpt><trkpt lat="47.66217718351623" lon="0.9613224361832228"><ele>121.0</ele><time>2026-04-13T17:56:43Z</time></trkpt><trkpt lat="47.66205229563986" lon="0.9610916878075134"><ele>121.0</ele><time>2026-04-13T17:56:44Z</time></trkpt><trkpt lat="47.66189168461952" lon="0.9608641618822188"><ele>121.0</ele><time>2026-04-13T17:56:45Z</time></trkpt><trkpt lat="47.66175270283319" lon="0.9606761515480343"><ele>121.25</ele><time>2026-04-13T17:56:46Z</time></trkpt><trkpt lat="47.66165098462716" lon="0.9605384746292639"><ele>121.5</ele><time>2026-04-13T17:56:47Z</time></trkpt><trkpt lat="47.661574992512186" lon="0.9604113345203779"><ele>121.75</ele><time>2026-04-13T17:56:48Z</time></trkpt><trkpt lat="47.66151436015939" lon="0.9602181561599662"><ele>122.0</ele><time>2026-04-13T17:56:49Z</time></trkpt><trkpt lat="47.66144373953487" lon="0.9599775240643753"><ele>121.33333333333333</ele><time>2026-04-13T17:56:50Z</time></trkpt><trkpt lat="47.66134780106344" lon="0.9597151862428962"><ele>120.66666666666666</ele><time>2026-04-13T17:56:51Z</time></trkpt><trkpt lat="47.661244423428016" lon="0.9594240466570532"><ele>120.0</ele><time>2026-04-13T17:56:52Z</time></trkpt><trkpt lat="47.66114247469599" lon="0.95910404317376"><ele>121.5</ele><time>2026-04-13T17:56:53Z</time></trkpt><trkpt lat="47.661033379371446" lon="0.9587645506580136"><ele>123.0</ele><time>2026-04-13T17:56:54Z</time></trkpt><trkpt lat="47.6609227409503" lon="0.9584595782980501"><ele>123.0</ele><time>2026-04-13T17:56:55Z</time></trkpt><trkpt lat="47.66084456665839" lon="0.9581840654116599"><ele>123.0</ele><time>2026-04-13T17:56:56Z</time></trkpt><trkpt lat="47.66075799363984" lon="0.9579433158320143"><ele>123.0</ele><time>2026-04-13T17:56:57Z</time></trkpt><trkpt lat="47.660679629587705" lon="0.9577329363463263"><ele>123.0</ele><time>2026-04-13T17:56:58Z</time></trkpt><trkpt lat="47.66061077632462" lon="0.9575130306777233"><ele>123.0</ele><time>2026-04-13T17:56:59Z</time></trkpt><trkpt lat="47.66055065790246" lon="0.9572873953602075"><ele>123.0</ele><time>2026-04-13T17:57:00Z</time></trkpt><trkpt lat="47.66050153102947" lon="0.9570490264661281"><ele>123.0</ele><time>2026-04-13T17:57:01Z</time></trkpt><trkpt lat="47.66046080803758" lon="0.9568308178243353"><ele>123.0</ele><time>2026-04-13T17:57:02Z</time></trkpt><trkpt lat="47.66042370612625" lon="0.9566059893597809"><ele>123.0</ele><time>2026-04-13T17:57:03Z</time></trkpt><trkpt lat="47.66040478372674" lon="0.9563579387189929"><ele>122.66666666666666</ele><time>2026-04-13T17:57:04Z</time></trkpt><trkpt lat="47.66038300720085" lon="0.9560640320165279"><ele>122.33333333333333</ele><time>2026-04-13T17:57:05Z</time></trkpt><trkpt lat="47.66033684217955" lon="0.9557477559470409"><ele>122.0</ele><time>2026-04-13T17:57:06Z</time></trkpt><trkpt lat="47.6602867115512" lon="0.9553988199159282"><ele>122.5</ele><time>2026-04-13T17:57:07Z</time></trkpt><trkpt lat="47.660238856427654" lon="0.9550293375244622"><ele>123.0</ele><time>2026-04-13T17:57:08Z</time></trkpt><trkpt lat="47.66019860670032" lon="0.9546917106041349"><ele>123.0</ele><time>2026-04-13T17:57:09Z</time></trkpt><trkpt lat="47.660160479662586" lon="0.9544080826168625"><ele>123.0</ele><time>2026-04-13T17:57:10Z</time></trkpt><trkpt lat="47.66012821888326" lon="0.954157223364026"><ele>123.0</ele><time>2026-04-13T17:57:11Z</time></trkpt><trkpt lat="47.66009964576266" lon="0.9539458291970124"><ele>123.0</ele><time>2026-04-13T17:57:12Z</time></trkpt><trkpt lat="47.660078152676604" lon="0.9537514560345658"><ele>123.0</ele><time>2026-04-13T17:57:13Z</time></trkpt><trkpt lat="47.66007592515145" lon="0.9535726332615623"><ele>123.0</ele><time>2026-04-13T17:57:14Z</time></trkpt><trkpt lat="47.66009752647295" lon="0.9533875027129967"><ele>123.0</ele><time>2026-04-13T17:57:15Z</time></trkpt><trkpt lat="47.660130534115915" lon="0.9532189512152549"><ele>123.0</ele><time>2026-04-13T17:57:16Z</time></trkpt><trkpt lat="47.66015232769441" lon="0.953067397119815"><ele>123.00000000000001</ele><time>2026-04-13T17:57:17Z</time></trkpt><trkpt lat="47.660156855100745" lon="0.9529205948767417"><ele>123.00000000000001</ele><time>2026-04-13T17:57:18Z</time></trkpt><trkpt lat="47.66013178605153" lon="0.9527617639288736"><ele>123.0</ele><time>2026-04-13T17:57:19Z</time></trkpt><trkpt lat="47.66007610594205" lon="0.9526071227621569"><ele>123.0</ele><time>2026-04-13T17:57:20Z</time></trkpt><trkpt lat="47.65999206864219" lon="0.9524767144450528"><ele>123.33333333333334</ele><time>2026-04-13T17:57:21Z</time></trkpt><trkpt lat="47.65989276617478" lon="0.9523142904623985"><ele>123.66666666666667</ele><time>2026-04-13T17:57:22Z</time></trkpt><trkpt lat="47.65978004232337" lon="0.9521191894381996"><ele>124.0</ele><time>2026-04-13T17:57:23Z</time></trkpt><trkpt lat="47.65966270768794" lon="0.9518897650192305"><ele>124.33333333333334</ele><time>2026-04-13T17:57:24Z</time></trkpt><trkpt lat="47.65955482774679" lon="0.9516798313424749"><ele>124.66666666666666</ele><time>2026-04-13T17:57:25Z</time></trkpt><trkpt lat="47.6594779551136" lon="0.9514804735482721"><ele>125.0</ele><time>2026-04-13T17:57:26Z</time></trkpt><trkpt lat="47.65940011581781" lon="0.9512929254656324"><ele>125.25</ele><time>2026-04-13T17:57:27Z</time></trkpt><trkpt lat="47.659319423283456" lon="0.9510958093342368"><ele>125.5</ele><time>2026-04-13T17:57:28Z</time></trkpt><trkpt lat="47.659237707228364" lon="0.9509250547549538"><ele>125.75</ele><time>2026-04-13T17:57:29Z</time></trkpt><trkpt lat="47.65917453738526" lon="0.9507654048100459"><ele>126.0</ele><time>2026-04-13T17:57:30Z</time></trkpt><trkpt lat="47.65910465200864" lon="0.9505861744038102"><ele>126.0</ele><time>2026-04-13T17:57:31Z</time></trkpt><trkpt lat="47.65902649955704" lon="0.950398287436939"><ele>126.0</ele><time>2026-04-13T17:57:32Z</time></trkpt><trkpt lat="47.65895197381614" lon="0.9502337725840472"><ele>126.0</ele><time>2026-04-13T17:57:33Z</time></trkpt><trkpt lat="47.658896540944696" lon="0.9500931553489134"><ele>126.0</ele><time>2026-04-13T17:57:34Z</time></trkpt><trkpt lat="47.65884580361191" lon="0.9499698722655816"><ele>126.0</ele><time>2026-04-13T17:57:35Z</time></trkpt><trkpt lat="47.658770484533235" lon="0.9498549396920993"><ele>126.0</ele><time>2026-04-13T17:57:36Z</time></trkpt><trkpt lat="47.6586948815661" lon="0.9497650091011094"><ele>126.0</ele><time>2026-04-13T17:57:37Z</time></trkpt><trkpt lat="47.65860215818129" lon="0.9496907048078658"><ele>126.0</ele><time>2026-04-13T17:57:38Z</time></trkpt><trkpt lat="47.65848044628344" lon="0.9496012630485479"><ele>126.0</ele><time>2026-04-13T17:57:39Z</time></trkpt><trkpt lat="47.65834831559558" lon="0.9495044248549526"><ele>126.0</ele><time>2026-04-13T17:57:40Z</time></trkpt><trkpt lat="47.65821755917872" lon="0.9494051554461637"><ele>126.0</ele><time>2026-04-13T17:57:41Z</time></trkpt><trkpt lat="47.65807033762344" lon="0.9492938123755718"><ele>126.0</ele><time>2026-04-13T17:57:42Z</time></trkpt><trkpt lat="47.657896574109714" lon="0.9491696437364803"><ele>125.66666666666666</ele><time>2026-04-13T17:57:43Z</time></trkpt><trkpt lat="47.657737846230674" lon="0.949014991354379"><ele>125.33333333333333</ele><time>2026-04-13T17:57:44Z</time></trkpt><trkpt lat="47.657589964098875" lon="0.9488866869143597"><ele>125.0</ele><time>2026-04-13T17:57:45Z</time></trkpt><trkpt lat="47.657438724956144" lon="0.948766280015983"><ele>125.0</ele><time>2026-04-13T17:57:46Z</time></trkpt><trkpt lat="47.65726525872682" lon="0.9486398811997866"><ele>125.0</ele><time>2026-04-13T17:57:47Z</time></trkpt><trkpt lat="47.65708237907578" lon="0.9484855031751013"><ele>125.0</ele><time>2026-04-13T17:57:48Z</time></trkpt><trkpt lat="47.65687506270506" lon="0.9483312552746851"><ele>125.0</ele><time>2026-04-13T17:57:48.999Z</time></trkpt><trkpt lat="47.6566822775818" lon="0.9481981907703425"><ele>125.0</ele><time>2026-04-13T17:57:49.999Z</time></trkpt><trkpt lat="47.65652843186602" lon="0.9480982081262396"><ele>125.0</ele><time>2026-04-13T17:57:50.999Z</time></trkpt><trkpt lat="47.65638860918463" lon="0.9479965293973655"><ele>125.0</ele><time>2026-04-13T17:57:51.999Z</time></trkpt><trkpt lat="47.65626335056504" lon="0.9478664541806119"><ele>125.0</ele><time>2026-04-13T17:57:52.999Z</time></trkpt><trkpt lat="47.65612900653752" lon="0.9476865142339056"><ele>125.0</ele><time>2026-04-13T17:57:53.999Z</time></trkpt><trkpt lat="47.655983699173" lon="0.9474388906494443"><ele>125.33333333333333</ele><time>2026-04-13T17:57:54.999Z</time></trkpt><trkpt lat="47.655824671747226" lon="0.9472032995406079"><ele>125.66666666666666</ele><time>2026-04-13T17:57:55.999Z</time></trkpt><trkpt lat="47.655682728254426" lon="0.9469457661439564"><ele>126.0</ele><time>2026-04-13T17:57:56.999Z</time></trkpt><trkpt lat="47.655522089556804" lon="0.9466946342253123"><ele>126.33333333333334</ele><time>2026-04-13T17:57:57.999Z</time></trkpt><trkpt lat="47.655386378625" lon="0.9464924258771854"><ele>126.66666666666667</ele><time>2026-04-13T17:57:58.999Z</time></trkpt><trkpt lat="47.65526087204017" lon="0.9463261338888364"><ele>127.0</ele><time>2026-04-13T17:57:59.999Z</time></trkpt><trkpt lat="47.655129296074506" lon="0.9461908045846179"><ele>127.0</ele><time>2026-04-13T17:58:00.999Z</time></trkpt><trkpt lat="47.654980411513876" lon="0.9460651225530946"><ele>127.0</ele><time>2026-04-13T17:58:01.999Z</time></trkpt><trkpt lat="47.65478531150226" lon="0.945957583442577"><ele>127.0</ele><time>2026-04-13T17:58:02.999Z</time></trkpt><trkpt lat="47.654572195289006" lon="0.9458528054637871"><ele>126.0</ele><time>2026-04-13T17:58:03.999Z</time></trkpt><trkpt lat="47.65435310629162" lon="0.9457219657443693"><ele>125.0</ele><time>2026-04-13T17:58:04.999Z</time></trkpt><trkpt lat="47.654144449403724" lon="0.9456191606939233"><ele>125.0</ele><time>2026-04-13T17:58:05.999Z</time></trkpt><trkpt lat="47.65397229226797" lon="0.9455016795261362"><ele>125.0</ele><time>2026-04-13T17:58:06.999Z</time></trkpt><trkpt lat="47.65381059845362" lon="0.9453746073488772"><ele>125.0</ele><time>2026-04-13T17:58:07.999Z</time></trkpt><trkpt lat="47.653641850742595" lon="0.9452452899459627"><ele>124.33333333333333</ele><time>2026-04-13T17:58:08.999Z</time></trkpt><trkpt lat="47.653465937254445" lon="0.9450793616766354"><ele>123.66666666666666</ele><time>2026-04-13T17:58:09.999Z</time></trkpt><trkpt lat="47.653275156625796" lon="0.9448826980030283"><ele>123.0</ele><time>2026-04-13T17:58:10.999Z</time></trkpt><trkpt lat="47.65306846980249" lon="0.9446518940095018"><ele>123.0</ele><time>2026-04-13T17:58:11.999Z</time></trkpt><trkpt lat="47.65285298226889" lon="0.9444123480362648"><ele>123.0</ele><time>2026-04-13T17:58:12.999Z</time></trkpt><trkpt lat="47.652667242851685" lon="0.9442288664381522"><ele>122.0</ele><time>2026-04-13T17:58:13.999Z</time></trkpt><trkpt lat="47.652509047662114" lon="0.9440593829395152"><ele>121.0</ele><time>2026-04-13T17:58:14.999Z</time></trkpt><trkpt lat="47.65236599303899" lon="0.9439247654443059"><ele>120.0</ele><time>2026-04-13T17:58:15.999Z</time></trkpt><trkpt lat="47.65223421929175" lon="0.9438130724877991"><ele>120.0</ele><time>2026-04-13T17:58:16.999Z</time></trkpt><trkpt lat="47.65205659068945" lon="0.94382359587415"><ele>120.0</ele><time>2026-04-13T17:58:17.999Z</time></trkpt><trkpt lat="47.65195695413473" lon="0.9437203532870122"><ele>120.0</ele><time>2026-04-13T17:58:18.999Z</time></trkpt><trkpt lat="47.65185520506787" lon="0.9436426445039625"><ele>120.0</ele><time>2026-04-13T17:58:19.999Z</time></trkpt><trkpt lat="47.65171874718626" lon="0.9435596724007446"><ele>119.66666666666666</ele><time>2026-04-13T17:58:20.999Z</time></trkpt><trkpt lat="47.65158354738493" lon="0.9434774652717831"><ele>119.33333333333333</ele><time>2026-04-13T17:58:21.999Z</time></trkpt><trkpt lat="47.65150661631632" lon="0.9432855869119632"><ele>119.0</ele><time>2026-04-13T17:58:22.999Z</time></trkpt><trkpt lat="47.65134562553668" lon="0.943234072789058"><ele>118.6</ele><time>2026-04-13T17:58:23.999Z</time></trkpt><trkpt lat="47.651198388578074" lon="0.9432254054016461"><ele>118.2</ele><time>2026-04-13T17:58:24.999Z</time></trkpt><trkpt lat="47.65109145901515" lon="0.9432215692276827"><ele>117.79999999999998</ele><time>2026-04-13T17:58:25.999Z</time></trkpt><trkpt lat="47.65102498156141" lon="0.9432201202777756"><ele>117.39999999999999</ele><time>2026-04-13T17:58:26.999Z</time></trkpt><trkpt lat="47.6509364665203" lon="0.9431960787112078"><ele>117.0</ele><time>2026-04-13T17:58:28.999Z</time></trkpt><trkpt lat="47.65090561317957" lon="0.9430609383434546"><ele>115.25</ele><time>2026-04-13T17:58:30.999Z</time></trkpt><trkpt lat="47.65087944484398" lon="0.9428730671387471"><ele>113.5</ele><time>2026-04-13T17:58:31.999Z</time></trkpt><trkpt lat="47.650831262068834" lon="0.9426619896566413"><ele>111.75</ele><time>2026-04-13T17:58:32.999Z</time></trkpt><trkpt lat="47.650785431898115" lon="0.9425193722697193"><ele>110.0</ele><time>2026-04-13T17:58:33.999Z</time></trkpt><trkpt lat="47.650748221356274" lon="0.9424216211444515"><ele>109.75</ele><time>2026-04-13T17:58:34.999Z</time></trkpt><trkpt lat="47.65072368650527" lon="0.9422788372104951"><ele>109.5</ele><time>2026-04-13T17:58:37Z</time></trkpt><trkpt lat="47.65058390184814" lon="0.9421526688356423"><ele>109.25</ele><time>2026-04-13T17:58:39Z</time></trkpt><trkpt lat="47.650465512022826" lon="0.9421315163951176"><ele>109.0</ele><time>2026-04-13T17:58:40Z</time></trkpt><trkpt lat="47.65033969986921" lon="0.94209976388658"><ele>110.0</ele><time>2026-04-13T17:58:41Z</time></trkpt><trkpt lat="47.6501941031531" lon="0.9420920151248225"><ele>111.0</ele><time>2026-04-13T17:58:42Z</time></trkpt><trkpt lat="47.6500892455223" lon="0.9421082238106022"><ele>112.0</ele><time>2026-04-13T17:58:43Z</time></trkpt><trkpt lat="47.649959851621546" lon="0.9420898206863204"><ele>113.0</ele><time>2026-04-13T17:58:44Z</time></trkpt><trkpt lat="47.649813312339475" lon="0.941976249714486"><ele>113.0</ele><time>2026-04-13T17:58:45Z</time></trkpt><trkpt lat="47.64964903687445" lon="0.9418737819948766"><ele>113.0</ele><time>2026-04-13T17:58:46Z</time></trkpt><trkpt lat="47.64953621534498" lon="0.9417604378388844"><ele>113.0</ele><time>2026-04-13T17:58:47Z</time></trkpt><trkpt lat="47.649450652810984" lon="0.9416730436225869"><ele>113.0</ele><time>2026-04-13T17:58:48Z</time></trkpt><trkpt lat="47.649405203528026" lon="0.9416005096169147"><ele>114.0</ele><time>2026-04-13T17:58:49Z</time></trkpt><trkpt lat="47.64939787824866" lon="0.9413115262961752"><ele>115.0</ele><time>2026-04-13T17:58:51Z</time></trkpt><trkpt lat="47.64938707105049" lon="0.9410756041915639"><ele>116.0</ele><time>2026-04-13T17:58:52Z</time></trkpt><trkpt lat="47.64938335565916" lon="0.9407840944142237"><ele>116.0</ele><time>2026-04-13T17:58:53Z</time></trkpt><trkpt lat="47.649391137701784" lon="0.9404667512964101"><ele>116.0</ele><time>2026-04-13T17:58:54Z</time></trkpt><trkpt lat="47.64931730142653" lon="0.9402021638149958"><ele>116.0</ele><time>2026-04-13T17:58:55Z</time></trkpt><trkpt lat="47.64922002798162" lon="0.9399650883392936"><ele>115.0</ele><time>2026-04-13T17:58:56Z</time></trkpt><trkpt lat="47.64906850676188" lon="0.9397227868203988"><ele>114.0</ele><time>2026-04-13T17:58:57Z</time></trkpt><trkpt lat="47.64887837957509" lon="0.939501780696428"><ele>114.0</ele><time>2026-04-13T17:58:58Z</time></trkpt><trkpt lat="47.64865473728264" lon="0.939302268200624"><ele>114.0</ele><time>2026-04-13T17:58:59Z</time></trkpt><trkpt lat="47.6484179442646" lon="0.9391307302327147"><ele>116.0</ele><time>2026-04-13T17:59:00Z</time></trkpt><trkpt lat="47.648186011992216" lon="0.9389164210927591"><ele>118.0</ele><time>2026-04-13T17:59:01Z</time></trkpt><trkpt lat="47.64796688521307" lon="0.9386742486636219"><ele>118.5</ele><time>2026-04-13T17:59:02Z</time></trkpt><trkpt lat="47.647740535611696" lon="0.9384462842492917"><ele>119.0</ele><time>2026-04-13T17:59:03Z</time></trkpt><trkpt lat="47.64752932066797" lon="0.9381979519609949"><ele>119.5</ele><time>2026-04-13T17:59:04Z</time></trkpt><trkpt lat="47.64731429854983" lon="0.9379956415034443"><ele>120.0</ele><time>2026-04-13T17:59:05Z</time></trkpt><trkpt lat="47.647115724454224" lon="0.9377821297354652"><ele>119.5</ele><time>2026-04-13T17:59:06Z</time></trkpt><trkpt lat="47.64691733024354" lon="0.9375696208074387"><ele>119.0</ele><time>2026-04-13T17:59:07Z</time></trkpt><trkpt lat="47.64671158432393" lon="0.9373669151102533"><ele>119.0</ele><time>2026-04-13T17:59:08Z</time></trkpt><trkpt lat="47.64649644970833" lon="0.9371525593180194"><ele>119.0</ele><time>2026-04-13T17:59:09Z</time></trkpt><trkpt lat="47.646297637985" lon="0.9369264735873837"><ele>118.33333333333333</ele><time>2026-04-13T17:59:10Z</time></trkpt><trkpt lat="47.64612522395471" lon="0.9367171869955183"><ele>117.66666666666666</ele><time>2026-04-13T17:59:11Z</time></trkpt><trkpt lat="47.64596722001478" lon="0.9364772251408174"><ele>117.0</ele><time>2026-04-13T17:59:12Z</time></trkpt><trkpt lat="47.64580789600339" lon="0.9362364382328245"><ele>117.0</ele><time>2026-04-13T17:59:13Z</time></trkpt><trkpt lat="47.64566297775203" lon="0.9360091521218222"><ele>117.0</ele><time>2026-04-13T17:59:14Z</time></trkpt><trkpt lat="47.645518524277264" lon="0.9357440838738762"><ele>117.0</ele><time>2026-04-13T17:59:15Z</time></trkpt><trkpt lat="47.64537675930794" lon="0.9354591853447607"><ele>116.66666666666666</ele><time>2026-04-13T17:59:16Z</time></trkpt><trkpt lat="47.645270368506765" lon="0.9352242322627717"><ele>116.33333333333333</ele><time>2026-04-13T17:59:17Z</time></trkpt><trkpt lat="47.6452024475994" lon="0.9350346002965454"><ele>116.0</ele><time>2026-04-13T17:59:18Z</time></trkpt><trkpt lat="47.645162245039614" lon="0.9348260082353919"><ele>115.0</ele><time>2026-04-13T17:59:19Z</time></trkpt><trkpt lat="47.64518205655507" lon="0.9345886002132361"><ele>114.0</ele><time>2026-04-13T17:59:20Z</time></trkpt><trkpt lat="47.64523962790557" lon="0.9343259723421672"><ele>113.0</ele><time>2026-04-13T17:59:21Z</time></trkpt><trkpt lat="47.64531405973102" lon="0.9340189983019782"><ele>110.5</ele><time>2026-04-13T17:59:22Z</time></trkpt><trkpt lat="47.645392414765176" lon="0.9336799608277219"><ele>108.0</ele><time>2026-04-13T17:59:23Z</time></trkpt><trkpt lat="47.64547916658574" lon="0.933319603222932"><ele>108.0</ele><time>2026-04-13T17:59:24Z</time></trkpt><trkpt lat="47.645572228165605" lon="0.9329401824996005"><ele>108.0</ele><time>2026-04-13T17:59:25Z</time></trkpt><trkpt lat="47.645662041539346" lon="0.9325662217251889"><ele>107.0</ele><time>2026-04-13T17:59:26Z</time></trkpt><trkpt lat="47.64574377763977" lon="0.932194554032798"><ele>106.0</ele><time>2026-04-13T17:59:27Z</time></trkpt><trkpt lat="47.64583991883032" lon="0.931820681797934"><ele>108.0</ele><time>2026-04-13T17:59:28Z</time></trkpt><trkpt lat="47.64592554500508" lon="0.9314562000963852"><ele>110.0</ele><time>2026-04-13T17:59:29Z</time></trkpt><trkpt lat="47.64601530086165" lon="0.9310810807990775"><ele>110.5</ele><time>2026-04-13T17:59:30Z</time></trkpt><trkpt lat="47.646105861547426" lon="0.9306974151468762"><ele>111.0</ele><time>2026-04-13T17:59:31Z</time></trkpt><trkpt lat="47.64618223987249" lon="0.930320489236109"><ele>113.5</ele><time>2026-04-13T17:59:32Z</time></trkpt><trkpt lat="47.6462135594783" lon="0.9299716039894914"><ele>116.0</ele><time>2026-04-13T17:59:33Z</time></trkpt><trkpt lat="47.64617172813219" lon="0.9295947171196557"><ele>113.5</ele><time>2026-04-13T17:59:34Z</time></trkpt><trkpt lat="47.646102402098926" lon="0.9292078171787845"><ele>111.0</ele><time>2026-04-13T17:59:35Z</time></trkpt><trkpt lat="47.64598702942537" lon="0.9288442469321199"><ele>111.0</ele><time>2026-04-13T17:59:36Z</time></trkpt><trkpt lat="47.64584379782329" lon="0.928486944362307"><ele>111.0</ele><time>2026-04-13T17:59:37Z</time></trkpt><trkpt lat="47.64570583509974" lon="0.9281390506617702"><ele>111.5</ele><time>2026-04-13T17:59:38Z</time></trkpt><trkpt lat="47.64555928680897" lon="0.9277945435277521"><ele>112.0</ele><time>2026-04-13T17:59:39Z</time></trkpt><trkpt lat="47.645399483787145" lon="0.9274617633973717"><ele>113.5</ele><time>2026-04-13T17:59:40Z</time></trkpt><trkpt lat="47.64524599901159" lon="0.9271511207761942"><ele>115.0</ele><time>2026-04-13T17:59:41Z</time></trkpt><trkpt lat="47.64511519369003" lon="0.9268558695188678"><ele>115.5</ele><time>2026-04-13T17:59:42Z</time></trkpt><trkpt lat="47.64501133988297" lon="0.9265444923601754"><ele>116.0</ele><time>2026-04-13T17:59:43Z</time></trkpt><trkpt lat="47.64492610870553" lon="0.9261798383343438"><ele>116.0</ele><time>2026-04-13T17:59:44Z</time></trkpt><trkpt lat="47.644852841308904" lon="0.9258111661053904"><ele>116.0</ele><time>2026-04-13T17:59:45Z</time></trkpt><trkpt lat="47.64479820041507" lon="0.9254572830319625"><ele>116.0</ele><time>2026-04-13T17:59:46Z</time></trkpt><trkpt lat="47.64474982582408" lon="0.9251237810472444"><ele>116.0</ele><time>2026-04-13T17:59:47Z</time></trkpt><trkpt lat="47.64470338282843" lon="0.9247816660192278"><ele>116.0</ele><time>2026-04-13T17:59:48Z</time></trkpt><trkpt lat="47.64467233957099" lon="0.9244286480562004"><ele>116.0</ele><time>2026-04-13T17:59:49Z</time></trkpt><trkpt lat="47.64465079561471" lon="0.9240748622987548"><ele>116.0</ele><time>2026-04-13T17:59:50Z</time></trkpt><trkpt lat="47.64464448825085" lon="0.9236973306607706"><ele>116.0</ele><time>2026-04-13T17:59:51Z</time></trkpt><trkpt lat="47.64463657196248" lon="0.9233219820076373"><ele>116.33333333333333</ele><time>2026-04-13T17:59:52Z</time></trkpt><trkpt lat="47.64461509292568" lon="0.9229788676323962"><ele>116.66666666666666</ele><time>2026-04-13T17:59:52.999Z</time></trkpt><trkpt lat="47.6445829815764" lon="0.9226608459073071"><ele>117.0</ele><time>2026-04-13T17:59:53.999Z</time></trkpt><trkpt lat="47.644537668892625" lon="0.9223346127411105"><ele>117.5</ele><time>2026-04-13T17:59:54.999Z</time></trkpt><trkpt lat="47.64446345539482" lon="0.9219984485056166"><ele>118.0</ele><time>2026-04-13T17:59:55.999Z</time></trkpt><trkpt lat="47.64438991593363" lon="0.921669098696439"><ele>118.0</ele><time>2026-04-13T17:59:56.999Z</time></trkpt><trkpt lat="47.644333640202795" lon="0.9213500571191254"><ele>118.0</ele><time>2026-04-13T17:59:57.999Z</time></trkpt><trkpt lat="47.64428642534865" lon="0.9210522280518192"><ele>118.0</ele><time>2026-04-13T17:59:58.999Z</time></trkpt><trkpt lat="47.644249031125945" lon="0.9207706618720123"><ele>118.0</ele><time>2026-04-13T17:59:59.999Z</time></trkpt><trkpt lat="47.64423389365492" lon="0.9204744176053902"><ele>118.0</ele><time>2026-04-13T18:00:00.999Z</time></trkpt><trkpt lat="47.644264746392835" lon="0.9201623854785761"><ele>118.0</ele><time>2026-04-13T18:00:01.999Z</time></trkpt><trkpt lat="47.644337402746835" lon="0.9198509817855691"><ele>118.5</ele><time>2026-04-13T18:00:02.999Z</time></trkpt><trkpt lat="47.644459412137955" lon="0.9195597547637704"><ele>119.0</ele><time>2026-04-13T18:00:03.999Z</time></trkpt><trkpt lat="47.64457203392141" lon="0.919274203519675"><ele>119.0</ele><time>2026-04-13T18:00:04.999Z</time></trkpt><trkpt lat="47.644674183051244" lon="0.9189890423259821"><ele>119.0</ele><time>2026-04-13T18:00:05.999Z</time></trkpt><trkpt lat="47.64478427271311" lon="0.9186946420414054"><ele>119.0</ele><time>2026-04-13T18:00:06.999Z</time></trkpt><trkpt lat="47.64485785902826" lon="0.9183715838356099"><ele>119.5</ele><time>2026-04-13T18:00:07.999Z</time></trkpt><trkpt lat="47.644924125637225" lon="0.9180455097698415"><ele>120.0</ele><time>2026-04-13T18:00:08.999Z</time></trkpt><trkpt lat="47.645002625464265" lon="0.9177153067518617"><ele>121.0</ele><time>2026-04-13T18:00:09.999Z</time></trkpt><trkpt lat="47.64508043725215" lon="0.9173847085662782"><ele>122.0</ele><time>2026-04-13T18:00:10.999Z</time></trkpt><trkpt lat="47.64514998876019" lon="0.9170662174012608"><ele>122.0</ele><time>2026-04-13T18:00:11.999Z</time></trkpt><trkpt lat="47.645204463635885" lon="0.9167789225003398"><ele>122.0</ele><time>2026-04-13T18:00:12.999Z</time></trkpt><trkpt lat="47.64524953710147" lon="0.9165078480284533"><ele>122.0</ele><time>2026-04-13T18:00:13.999Z</time></trkpt><trkpt lat="47.64529316206682" lon="0.9162385673908828"><ele>122.0</ele><time>2026-04-13T18:00:14.999Z</time></trkpt><trkpt lat="47.64534926478035" lon="0.9159622662087157"><ele>122.0</ele><time>2026-04-13T18:00:15.999Z</time></trkpt><trkpt lat="47.64541416624295" lon="0.9156799594003496"><ele>122.0</ele><time>2026-04-13T18:00:16.999Z</time></trkpt><trkpt lat="47.64548271519181" lon="0.9153967135488364"><ele>122.66666666666666</ele><time>2026-04-13T18:00:17.999Z</time></trkpt><trkpt lat="47.645542278835656" lon="0.9151013651735489"><ele>123.33333333333334</ele><time>2026-04-13T18:00:18.999Z</time></trkpt><trkpt lat="47.6455756111718" lon="0.9147972637366136"><ele>124.0</ele><time>2026-04-13T18:00:19.999Z</time></trkpt><trkpt lat="47.64560105175643" lon="0.9144756485436247"><ele>124.33333333333334</ele><time>2026-04-13T18:00:20.999Z</time></trkpt><trkpt lat="47.6456191372067" lon="0.914144925403843"><ele>124.66666666666666</ele><time>2026-04-13T18:00:21.999Z</time></trkpt><trkpt lat="47.64561656638213" lon="0.9138123462016656"><ele>125.0</ele><time>2026-04-13T18:00:22.999Z</time></trkpt><trkpt lat="47.64560205868485" lon="0.9134778040617576"><ele>125.5</ele><time>2026-04-13T18:00:23.999Z</time></trkpt><trkpt lat="47.64556839471804" lon="0.9131344699639635"><ele>126.0</ele><time>2026-04-13T18:00:24.999Z</time></trkpt><trkpt lat="47.645532805414895" lon="0.91278289125837"><ele>127.0</ele><time>2026-04-13T18:00:25.999Z</time></trkpt><trkpt lat="47.64550421509117" lon="0.9124162103357504"><ele>128.0</ele><time>2026-04-13T18:00:26.999Z</time></trkpt><trkpt lat="47.64547251851581" lon="0.9120427182629719"><ele>129.0</ele><time>2026-04-13T18:00:27.999Z</time></trkpt><trkpt lat="47.64543358985897" lon="0.9116683075779436"><ele>130.0</ele><time>2026-04-13T18:00:28.999Z</time></trkpt><trkpt lat="47.64540907621599" lon="0.9112914606654198"><ele>130.0</ele><time>2026-04-13T18:00:29.999Z</time></trkpt><trkpt lat="47.64537840032171" lon="0.9109661191182812"><ele>130.0</ele><time>2026-04-13T18:00:30.999Z</time></trkpt><trkpt lat="47.64536565326723" lon="0.9106695334350744"><ele>130.0</ele><time>2026-04-13T18:00:31.999Z</time></trkpt><trkpt lat="47.64537622275499" lon="0.9103603711482917"><ele>130.0</ele><time>2026-04-13T18:00:32.999Z</time></trkpt><trkpt lat="47.64540604963197" lon="0.9100332183444417"><ele>130.0</ele><time>2026-04-13T18:00:33.999Z</time></trkpt><trkpt lat="47.645443814430564" lon="0.9097211435520361"><ele>130.0</ele><time>2026-04-13T18:00:34.999Z</time></trkpt><trkpt lat="47.64547624631866" lon="0.9094197351235584"><ele>129.0</ele><time>2026-04-13T18:00:35.999Z</time></trkpt><trkpt lat="47.64549982294191" lon="0.9091029060142933"><ele>128.0</ele><time>2026-04-13T18:00:36.999Z</time></trkpt><trkpt lat="47.645516176122534" lon="0.908752519132923"><ele>126.5</ele><time>2026-04-13T18:00:37.999Z</time></trkpt><trkpt lat="47.645518177202355" lon="0.9083902804024324"><ele>125.0</ele><time>2026-04-13T18:00:38.999Z</time></trkpt><trkpt lat="47.645511897740676" lon="0.9080015821103135"><ele>125.0</ele><time>2026-04-13T18:00:39.999Z</time></trkpt><trkpt lat="47.64550488215332" lon="0.907631992731919"><ele>125.0</ele><time>2026-04-13T18:00:40.999Z</time></trkpt><trkpt lat="47.64551097559532" lon="0.9072942417260041"><ele>125.66666666666666</ele><time>2026-04-13T18:00:41.999Z</time></trkpt><trkpt lat="47.64550444318243" lon="0.9069775494258902"><ele>126.33333333333334</ele><time>2026-04-13T18:00:43Z</time></trkpt><trkpt lat="47.64550053174213" lon="0.906676778446678"><ele>127.0</ele><time>2026-04-13T18:00:44Z</time></trkpt><trkpt lat="47.64549900720828" lon="0.9064069467036967"><ele>128.33333333333334</ele><time>2026-04-13T18:00:45Z</time></trkpt><trkpt lat="47.64549553124069" lon="0.9061551846475224"><ele>129.66666666666666</ele><time>2026-04-13T18:00:46Z</time></trkpt><trkpt lat="47.6454979884498" lon="0.9059281415415074"><ele>131.0</ele><time>2026-04-13T18:00:47Z</time></trkpt><trkpt lat="47.64549755547386" lon="0.9057173963672065"><ele>131.5</ele><time>2026-04-13T18:00:48Z</time></trkpt><trkpt lat="47.64549875976652" lon="0.905520337323764"><ele>132.0</ele><time>2026-04-13T18:00:49Z</time></trkpt><trkpt lat="47.64550151610474" lon="0.9053366844549711"><ele>132.5</ele><time>2026-04-13T18:00:50Z</time></trkpt><trkpt lat="47.64550435151722" lon="0.9051634055383158"><ele>133.0</ele><time>2026-04-13T18:00:51Z</time></trkpt><trkpt lat="47.645496739419926" lon="0.9049982469328929"><ele>133.0</ele><time>2026-04-13T18:00:52Z</time></trkpt><trkpt lat="47.64549137307648" lon="0.9048352208227951"><ele>133.0</ele><time>2026-04-13T18:00:53Z</time></trkpt><trkpt lat="47.64550207349989" lon="0.9046801645664032"><ele>133.0</ele><time>2026-04-13T18:00:54Z</time></trkpt><trkpt lat="47.64550603498273" lon="0.9045296596365453"><ele>133.0</ele><time>2026-04-13T18:00:55Z</time></trkpt><trkpt lat="47.64548917175985" lon="0.9043856719298795"><ele>133.0</ele><time>2026-04-13T18:00:56Z</time></trkpt><trkpt lat="47.64547865017163" lon="0.9042445459809775"><ele>132.5</ele><time>2026-04-13T18:00:57Z</time></trkpt><trkpt lat="47.64548250003251" lon="0.9041130007015178"><ele>132.0</ele><time>2026-04-13T18:00:58Z</time></trkpt><trkpt lat="47.645489214812784" lon="0.9039857366362307"><ele>131.5</ele><time>2026-04-13T18:00:59Z</time></trkpt><trkpt lat="47.64548785493447" lon="0.9038602925270883"><ele>131.0</ele><time>2026-04-13T18:01:00Z</time></trkpt><trkpt lat="47.645486314938324" lon="0.9037478246250548"><ele>130.5</ele><time>2026-04-13T18:01:01Z</time></trkpt><trkpt lat="47.645481011791716" lon="0.90363891824603"><ele>130.0</ele><time>2026-04-13T18:01:02Z</time></trkpt><trkpt lat="47.64548042261167" lon="0.9035140789480967"><ele>129.66666666666669</ele><time>2026-04-13T18:01:03Z</time></trkpt><trkpt lat="47.64547658194932" lon="0.9034031631072222"><ele>129.33333333333334</ele><time>2026-04-13T18:01:04Z</time></trkpt><trkpt lat="47.64547941000353" lon="0.9032927873756127"><ele>129.0</ele><time>2026-04-13T18:01:05Z</time></trkpt><trkpt lat="47.645482117080576" lon="0.9031971598467143"><ele>128.66666666666666</ele><time>2026-04-13T18:01:06Z</time></trkpt><trkpt lat="47.64547870399892" lon="0.90307213445787"><ele>128.33333333333331</ele><time>2026-04-13T18:01:07Z</time></trkpt><trkpt lat="47.645477982078106" lon="0.902916951496433"><ele>128.0</ele><time>2026-04-13T18:01:08Z</time></trkpt><trkpt lat="47.64546989769138" lon="0.9027254394801455"><ele>127.75</ele><time>2026-04-13T18:01:09Z</time></trkpt><trkpt lat="47.645471371977294" lon="0.9024851797257814"><ele>127.5</ele><time>2026-04-13T18:01:10Z</time></trkpt><trkpt lat="47.645469835907626" lon="0.9022447978629897"><ele>127.25</ele><time>2026-04-13T18:01:11Z</time></trkpt><trkpt lat="47.64546881360609" lon="0.9020891592964262"><ele>127.0</ele><time>2026-04-13T18:01:12Z</time></trkpt><trkpt lat="47.64547533615248" lon="0.9019699586187122"><ele>127.0</ele><time>2026-04-13T18:01:13Z</time></trkpt><trkpt lat="47.645469693062864" lon="0.9017810070249941"><ele>127.0</ele><time>2026-04-13T18:01:14Z</time></trkpt><trkpt lat="47.64544808043055" lon="0.9015300819428772"><ele>127.0</ele><time>2026-04-13T18:01:15Z</time></trkpt><trkpt lat="47.6454273302228" lon="0.9012617352193594"><ele>126.8</ele><time>2026-04-13T18:01:16Z</time></trkpt><trkpt lat="47.645404757138564" lon="0.9010527577374068"><ele>126.6</ele><time>2026-04-13T18:01:17Z</time></trkpt><trkpt lat="47.64537093577629" lon="0.9009396220953193"><ele>126.39999999999999</ele><time>2026-04-13T18:01:18Z</time></trkpt><trkpt lat="47.64534909994168" lon="0.9008109279603509"><ele>126.19999999999999</ele><time>2026-04-13T18:01:19Z</time></trkpt><trkpt lat="47.64530960409305" lon="0.9006758379737537"><ele>126.0</ele><time>2026-04-13T18:01:20Z</time></trkpt><trkpt lat="47.64526066369137" lon="0.9005289299137839"><ele>127.33333333333334</ele><time>2026-04-13T18:01:21Z</time></trkpt><trkpt lat="47.64516932475108" lon="0.9003116259032962"><ele>128.66666666666669</ele><time>2026-04-13T18:01:22Z</time></trkpt><trkpt lat="47.6450887219273" lon="0.9000560187350198"><ele>130.0</ele><time>2026-04-13T18:01:23Z</time></trkpt><trkpt lat="47.64504039247432" lon="0.8998282658778536"><ele>130.2</ele><time>2026-04-13T18:01:24Z</time></trkpt><trkpt lat="47.645002540210974" lon="0.8996830521960522"><ele>130.4</ele><time>2026-04-13T18:01:25Z</time></trkpt><trkpt lat="47.6449669203459" lon="0.8995441385410201"><ele>130.6</ele><time>2026-04-13T18:01:26Z</time></trkpt><trkpt lat="47.64491498918798" lon="0.8993785380271132"><ele>130.8</ele><time>2026-04-13T18:01:27Z</time></trkpt><trkpt lat="47.644889000327744" lon="0.8992848588156265"><ele>131.0</ele><time>2026-04-13T18:01:35Z</time></trkpt><trkpt lat="47.644874637453775" lon="0.8991572596839102"><ele>130.0</ele><time>2026-04-13T18:02:22.999Z</time></trkpt><trkpt lat="47.64483571789952" lon="0.8989864558684345"><ele>129.0</ele><time>2026-04-13T18:02:24.999Z</time></trkpt><trkpt lat="47.64479812916955" lon="0.8988726707222541"><ele>128.0</ele><time>2026-04-13T18:02:25.999Z</time></trkpt><trkpt lat="47.64476610071269" lon="0.8987481695973059"><ele>127.0</ele><time>2026-04-13T18:02:26.999Z</time></trkpt><trkpt lat="47.644735848247265" lon="0.8986042139509384"><ele>126.0</ele><time>2026-04-13T18:02:27.999Z</time></trkpt><trkpt lat="47.64470036309263" lon="0.8984565817894622"><ele>125.8</ele><time>2026-04-13T18:02:28.999Z</time></trkpt><trkpt lat="47.644655488754374" lon="0.8983005814840361"><ele>125.6</ele><time>2026-04-13T18:02:29.999Z</time></trkpt><trkpt lat="47.644613575590434" lon="0.8981445198127602"><ele>125.4</ele><time>2026-04-13T18:02:30.999Z</time></trkpt><trkpt lat="47.64457719097348" lon="0.8979868223713308"><ele>125.2</ele><time>2026-04-13T18:02:31.999Z</time></trkpt><trkpt lat="47.644545769286815" lon="0.8978474999481221"><ele>125.0</ele><time>2026-04-13T18:02:32.999Z</time></trkpt><trkpt lat="47.64451524131891" lon="0.8977159229003466"><ele>124.99999999999999</ele><time>2026-04-13T18:02:33.999Z</time></trkpt><trkpt lat="47.64448643268253" lon="0.8975992091475395"><ele>125.0</ele><time>2026-04-13T18:02:34.999Z</time></trkpt><trkpt lat="47.64444796908169" lon="0.8974493909036875"><ele>125.0</ele><time>2026-04-13T18:02:36.999Z</time></trkpt><trkpt lat="47.64444171150808" lon="0.8973330050551087"><ele>125.0</ele><time>2026-04-13T18:02:39.999Z</time></trkpt><trkpt lat="47.644425345555035" lon="0.8972323968358464"><ele>124.99999999999999</ele><time>2026-04-13T18:02:51Z</time></trkpt><trkpt lat="47.64436497365904" lon="0.8972051357638168"><ele>125.0</ele><time>2026-04-13T18:02:54Z</time></trkpt><trkpt lat="47.644387158226785" lon="0.8973075990817013"><ele>124.99999999999999</ele><time>2026-04-13T18:02:56Z</time></trkpt><trkpt lat="47.64446356903452" lon="0.897357802684569"><ele>125.0</ele><time>2026-04-13T18:03:02Z</time></trkpt><trkpt lat="47.64458176504597" lon="0.8973198601454818"><ele>125.0</ele><time>2026-04-13T18:03:05Z</time></trkpt><trkpt lat="47.64451982897501" lon="0.8972652616160541"><ele>125.0</ele><time>2026-04-13T18:03:39Z</time></trkpt><trkpt lat="47.64444890121762" lon="0.8972635198352639"><ele>124.99999999999999</ele><time>2026-04-13T18:03:47Z</time></trkpt><trkpt lat="47.644506879983844" lon="0.8973109586749725"><ele>125.0</ele><time>2026-04-13T18:03:55Z</time></trkpt><trkpt lat="47.64457092132263" lon="0.8973119311464125"><ele>125.0</ele><time>2026-04-13T18:04:05.999Z</time></trkpt><trkpt lat="47.644629661894896" lon="0.8972607046853134"><ele>125.0</ele><time>2026-04-13T18:07:48Z</time></trkpt><trkpt lat="47.64457313848632" lon="0.8972144404361648"><ele>125.0</ele><time>2026-04-13T18:08:38.999Z</time></trkpt></trkseg></trk></gpx>